<?xml version="1.0" encoding="UTF-8" standalone="no" ?>
<gpx xmlns="http://www.topografix.com/GPX/1/1" xmlns:xsi="http://www.w3.org/2001/XMLSchema-instance" xsi:schemaLocation="http://www.topografix.com/GPX/1/1 http://www.topografix.com/GPX/1/1/gpx.xsd" version="1.1" creator="VisuGPX - https://www.visugpx.com">
  <metadata>
    <name>83-Ma-Vidauban</name>
    <desc><![CDATA[83-Ma-Vidauban : Astros                                    ]]></desc>
  </metadata>
  <trk>
    <name><![CDATA[2016-12-06-Ma-astros]]></name>
    <trkseg>
      <trkpt lat="43.43048" lon="6.42144">
        <ele>64.9</ele>
        <time>2016-12-06T12:44:55Z</time>
      </trkpt>
      <trkpt lat="43.43048" lon="6.42144">
        <ele>64.9</ele>
        <time>2016-12-06T12:44:56Z</time>
      </trkpt>
      <trkpt lat="43.43058" lon="6.42124">
        <ele>64.5</ele>
        <time>2016-12-06T12:45:26Z</time>
      </trkpt>
      <trkpt lat="43.43064" lon="6.42116">
        <ele>64.1</ele>
        <time>2016-12-06T12:45:41Z</time>
      </trkpt>
      <trkpt lat="43.43067" lon="6.42104">
        <ele>63.6</ele>
        <time>2016-12-06T12:45:56Z</time>
      </trkpt>
      <trkpt lat="43.43067" lon="6.42103">
        <ele>63.5</ele>
        <time>2016-12-06T12:45:57Z</time>
      </trkpt>
      <trkpt lat="43.43061" lon="6.42095">
        <ele>62.8</ele>
        <time>2016-12-06T12:47:54Z</time>
      </trkpt>
      <trkpt lat="43.43061" lon="6.42094">
        <ele>62.8</ele>
        <time>2016-12-06T12:47:55Z</time>
      </trkpt>
      <trkpt lat="43.43058" lon="6.42083">
        <ele>62.6</ele>
        <time>2016-12-06T12:50:14Z</time>
      </trkpt>
      <trkpt lat="43.43058" lon="6.42083">
        <ele>62.5</ele>
        <time>2016-12-06T12:50:15Z</time>
      </trkpt>
      <trkpt lat="43.4305" lon="6.42079">
        <ele>65</ele>
        <time>2016-12-06T13:03:05Z</time>
      </trkpt>
      <trkpt lat="43.43049" lon="6.42079">
        <ele>65</ele>
        <time>2016-12-06T13:03:06Z</time>
      </trkpt>
      <trkpt lat="43.43034" lon="6.42072">
        <ele>64.9</ele>
        <time>2016-12-06T13:03:26Z</time>
      </trkpt>
      <trkpt lat="43.43025" lon="6.42068">
        <ele>65</ele>
        <time>2016-12-06T13:03:33Z</time>
      </trkpt>
      <trkpt lat="43.43017" lon="6.42064">
        <ele>65.3</ele>
        <time>2016-12-06T13:03:40Z</time>
      </trkpt>
      <trkpt lat="43.4301" lon="6.4206">
        <ele>65.2</ele>
        <time>2016-12-06T13:03:47Z</time>
      </trkpt>
      <trkpt lat="43.43002" lon="6.42056">
        <ele>65.3</ele>
        <time>2016-12-06T13:03:53Z</time>
      </trkpt>
      <trkpt lat="43.42995" lon="6.42052">
        <ele>65.3</ele>
        <time>2016-12-06T13:04:00Z</time>
      </trkpt>
      <trkpt lat="43.42987" lon="6.42048">
        <ele>65.4</ele>
        <time>2016-12-06T13:04:07Z</time>
      </trkpt>
      <trkpt lat="43.42986" lon="6.42047">
        <ele>65.5</ele>
        <time>2016-12-06T13:04:08Z</time>
      </trkpt>
      <trkpt lat="43.42971" lon="6.42039">
        <ele>65.7</ele>
        <time>2016-12-06T13:04:22Z</time>
      </trkpt>
      <trkpt lat="43.42963" lon="6.42035">
        <ele>65.6</ele>
        <time>2016-12-06T13:04:31Z</time>
      </trkpt>
      <trkpt lat="43.42955" lon="6.42031">
        <ele>65.6</ele>
        <time>2016-12-06T13:04:38Z</time>
      </trkpt>
      <trkpt lat="43.42948" lon="6.42026">
        <ele>65.5</ele>
        <time>2016-12-06T13:04:45Z</time>
      </trkpt>
      <trkpt lat="43.42941" lon="6.4202">
        <ele>65.4</ele>
        <time>2016-12-06T13:04:52Z</time>
      </trkpt>
      <trkpt lat="43.42933" lon="6.42016">
        <ele>65.5</ele>
        <time>2016-12-06T13:04:59Z</time>
      </trkpt>
      <trkpt lat="43.42925" lon="6.42011">
        <ele>65.6</ele>
        <time>2016-12-06T13:05:05Z</time>
      </trkpt>
      <trkpt lat="43.42917" lon="6.42007">
        <ele>65.5</ele>
        <time>2016-12-06T13:05:12Z</time>
      </trkpt>
      <trkpt lat="43.42916" lon="6.42006">
        <ele>65.5</ele>
        <time>2016-12-06T13:05:13Z</time>
      </trkpt>
      <trkpt lat="43.42901" lon="6.41999">
        <ele>65.7</ele>
        <time>2016-12-06T13:05:27Z</time>
      </trkpt>
      <trkpt lat="43.42893" lon="6.41994">
        <ele>65.8</ele>
        <time>2016-12-06T13:05:35Z</time>
      </trkpt>
      <trkpt lat="43.42885" lon="6.4199">
        <ele>66.4</ele>
        <time>2016-12-06T13:05:42Z</time>
      </trkpt>
      <trkpt lat="43.42877" lon="6.41986">
        <ele>66.9</ele>
        <time>2016-12-06T13:05:49Z</time>
      </trkpt>
      <trkpt lat="43.4287" lon="6.41982">
        <ele>67</ele>
        <time>2016-12-06T13:05:56Z</time>
      </trkpt>
      <trkpt lat="43.42861" lon="6.41977">
        <ele>66.9</ele>
        <time>2016-12-06T13:06:03Z</time>
      </trkpt>
      <trkpt lat="43.42854" lon="6.41973">
        <ele>66.9</ele>
        <time>2016-12-06T13:06:10Z</time>
      </trkpt>
      <trkpt lat="43.42846" lon="6.41967">
        <ele>66.9</ele>
        <time>2016-12-06T13:06:18Z</time>
      </trkpt>
      <trkpt lat="43.42845" lon="6.41967">
        <ele>66.9</ele>
        <time>2016-12-06T13:06:19Z</time>
      </trkpt>
      <trkpt lat="43.4283" lon="6.4196">
        <ele>67.2</ele>
        <time>2016-12-06T13:06:33Z</time>
      </trkpt>
      <trkpt lat="43.42822" lon="6.41956">
        <ele>67.3</ele>
        <time>2016-12-06T13:06:40Z</time>
      </trkpt>
      <trkpt lat="43.42814" lon="6.41952">
        <ele>67.5</ele>
        <time>2016-12-06T13:06:48Z</time>
      </trkpt>
      <trkpt lat="43.42806" lon="6.41948">
        <ele>67.2</ele>
        <time>2016-12-06T13:06:55Z</time>
      </trkpt>
      <trkpt lat="43.42798" lon="6.41944">
        <ele>67.4</ele>
        <time>2016-12-06T13:07:02Z</time>
      </trkpt>
      <trkpt lat="43.4279" lon="6.41939">
        <ele>67.5</ele>
        <time>2016-12-06T13:07:09Z</time>
      </trkpt>
      <trkpt lat="43.42782" lon="6.41935">
        <ele>67.7</ele>
        <time>2016-12-06T13:07:15Z</time>
      </trkpt>
      <trkpt lat="43.42774" lon="6.41932">
        <ele>67.7</ele>
        <time>2016-12-06T13:07:21Z</time>
      </trkpt>
      <trkpt lat="43.42773" lon="6.41931">
        <ele>67.6</ele>
        <time>2016-12-06T13:07:22Z</time>
      </trkpt>
      <trkpt lat="43.42758" lon="6.41923">
        <ele>67.4</ele>
        <time>2016-12-06T13:07:34Z</time>
      </trkpt>
      <trkpt lat="43.42752" lon="6.41916">
        <ele>67.7</ele>
        <time>2016-12-06T13:07:40Z</time>
      </trkpt>
      <trkpt lat="43.42753" lon="6.41904">
        <ele>67.9</ele>
        <time>2016-12-06T13:07:48Z</time>
      </trkpt>
      <trkpt lat="43.42755" lon="6.41893">
        <ele>67.7</ele>
        <time>2016-12-06T13:07:54Z</time>
      </trkpt>
      <trkpt lat="43.42757" lon="6.41882">
        <ele>67.9</ele>
        <time>2016-12-06T13:08:00Z</time>
      </trkpt>
      <trkpt lat="43.4276" lon="6.41872">
        <ele>68.1</ele>
        <time>2016-12-06T13:08:06Z</time>
      </trkpt>
      <trkpt lat="43.42763" lon="6.41861">
        <ele>68.2</ele>
        <time>2016-12-06T13:08:12Z</time>
      </trkpt>
      <trkpt lat="43.42766" lon="6.4185">
        <ele>68.1</ele>
        <time>2016-12-06T13:08:19Z</time>
      </trkpt>
      <trkpt lat="43.42768" lon="6.41839">
        <ele>68.1</ele>
        <time>2016-12-06T13:08:26Z</time>
      </trkpt>
      <trkpt lat="43.42768" lon="6.41837">
        <ele>68.1</ele>
        <time>2016-12-06T13:08:27Z</time>
      </trkpt>
      <trkpt lat="43.42766" lon="6.41816">
        <ele>67.9</ele>
        <time>2016-12-06T13:08:39Z</time>
      </trkpt>
      <trkpt lat="43.42764" lon="6.41806">
        <ele>67.5</ele>
        <time>2016-12-06T13:08:45Z</time>
      </trkpt>
      <trkpt lat="43.42761" lon="6.41796">
        <ele>67.2</ele>
        <time>2016-12-06T13:08:51Z</time>
      </trkpt>
      <trkpt lat="43.42758" lon="6.41785">
        <ele>66.8</ele>
        <time>2016-12-06T13:08:57Z</time>
      </trkpt>
      <trkpt lat="43.42755" lon="6.41774">
        <ele>66.7</ele>
        <time>2016-12-06T13:09:04Z</time>
      </trkpt>
      <trkpt lat="43.42761" lon="6.41765">
        <ele>66.8</ele>
        <time>2016-12-06T13:09:14Z</time>
      </trkpt>
      <trkpt lat="43.42769" lon="6.41762">
        <ele>66.7</ele>
        <time>2016-12-06T13:09:22Z</time>
      </trkpt>
      <trkpt lat="43.42777" lon="6.41758">
        <ele>66.8</ele>
        <time>2016-12-06T13:09:30Z</time>
      </trkpt>
      <trkpt lat="43.42778" lon="6.41757">
        <ele>66.8</ele>
        <time>2016-12-06T13:09:31Z</time>
      </trkpt>
      <trkpt lat="43.42791" lon="6.41744">
        <ele>66.7</ele>
        <time>2016-12-06T13:09:44Z</time>
      </trkpt>
      <trkpt lat="43.42794" lon="6.41733">
        <ele>66.5</ele>
        <time>2016-12-06T13:09:51Z</time>
      </trkpt>
      <trkpt lat="43.42797" lon="6.41722">
        <ele>66.4</ele>
        <time>2016-12-06T13:09:58Z</time>
      </trkpt>
      <trkpt lat="43.42799" lon="6.41711">
        <ele>66.2</ele>
        <time>2016-12-06T13:10:05Z</time>
      </trkpt>
      <trkpt lat="43.42802" lon="6.41701">
        <ele>66.1</ele>
        <time>2016-12-06T13:10:11Z</time>
      </trkpt>
      <trkpt lat="43.42805" lon="6.41691">
        <ele>66.4</ele>
        <time>2016-12-06T13:10:17Z</time>
      </trkpt>
      <trkpt lat="43.42808" lon="6.4168">
        <ele>66.5</ele>
        <time>2016-12-06T13:10:24Z</time>
      </trkpt>
      <trkpt lat="43.42811" lon="6.41669">
        <ele>66.4</ele>
        <time>2016-12-06T13:10:31Z</time>
      </trkpt>
      <trkpt lat="43.42811" lon="6.41667">
        <ele>66.4</ele>
        <time>2016-12-06T13:10:32Z</time>
      </trkpt>
      <trkpt lat="43.42816" lon="6.41646">
        <ele>66.8</ele>
        <time>2016-12-06T13:10:45Z</time>
      </trkpt>
      <trkpt lat="43.42819" lon="6.41635">
        <ele>67</ele>
        <time>2016-12-06T13:10:53Z</time>
      </trkpt>
      <trkpt lat="43.42827" lon="6.4163">
        <ele>67.3</ele>
        <time>2016-12-06T13:11:01Z</time>
      </trkpt>
      <trkpt lat="43.42833" lon="6.41622">
        <ele>67.9</ele>
        <time>2016-12-06T13:11:10Z</time>
      </trkpt>
      <trkpt lat="43.42832" lon="6.4161">
        <ele>70.6</ele>
        <time>2016-12-06T13:11:25Z</time>
      </trkpt>
      <trkpt lat="43.42831" lon="6.41598">
        <ele>72.7</ele>
        <time>2016-12-06T13:11:36Z</time>
      </trkpt>
      <trkpt lat="43.42831" lon="6.41597">
        <ele>72.9</ele>
        <time>2016-12-06T13:11:37Z</time>
      </trkpt>
      <trkpt lat="43.42827" lon="6.41576">
        <ele>74.5</ele>
        <time>2016-12-06T13:11:54Z</time>
      </trkpt>
      <trkpt lat="43.42827" lon="6.41564">
        <ele>74.8</ele>
        <time>2016-12-06T13:12:02Z</time>
      </trkpt>
      <trkpt lat="43.42828" lon="6.41551">
        <ele>74.9</ele>
        <time>2016-12-06T13:12:09Z</time>
      </trkpt>
      <trkpt lat="43.42829" lon="6.4154">
        <ele>75.5</ele>
        <time>2016-12-06T13:12:15Z</time>
      </trkpt>
      <trkpt lat="43.4283" lon="6.4153">
        <ele>75.4</ele>
        <time>2016-12-06T13:12:22Z</time>
      </trkpt>
      <trkpt lat="43.42834" lon="6.41519">
        <ele>75.5</ele>
        <time>2016-12-06T13:12:28Z</time>
      </trkpt>
      <trkpt lat="43.42837" lon="6.41508">
        <ele>75.4</ele>
        <time>2016-12-06T13:12:34Z</time>
      </trkpt>
      <trkpt lat="43.42839" lon="6.41496">
        <ele>75.3</ele>
        <time>2016-12-06T13:12:40Z</time>
      </trkpt>
      <trkpt lat="43.42839" lon="6.41495">
        <ele>75.3</ele>
        <time>2016-12-06T13:12:41Z</time>
      </trkpt>
      <trkpt lat="43.42838" lon="6.41473">
        <ele>75</ele>
        <time>2016-12-06T13:12:52Z</time>
      </trkpt>
      <trkpt lat="43.42834" lon="6.41462">
        <ele>75.3</ele>
        <time>2016-12-06T13:13:00Z</time>
      </trkpt>
      <trkpt lat="43.42833" lon="6.41451">
        <ele>75.1</ele>
        <time>2016-12-06T13:13:08Z</time>
      </trkpt>
      <trkpt lat="43.4283" lon="6.4144">
        <ele>75.4</ele>
        <time>2016-12-06T13:13:14Z</time>
      </trkpt>
      <trkpt lat="43.42828" lon="6.41428">
        <ele>75.5</ele>
        <time>2016-12-06T13:13:20Z</time>
      </trkpt>
      <trkpt lat="43.42825" lon="6.41417">
        <ele>75.5</ele>
        <time>2016-12-06T13:13:26Z</time>
      </trkpt>
      <trkpt lat="43.42824" lon="6.41406">
        <ele>75.4</ele>
        <time>2016-12-06T13:13:32Z</time>
      </trkpt>
      <trkpt lat="43.42823" lon="6.41394">
        <ele>75.4</ele>
        <time>2016-12-06T13:13:38Z</time>
      </trkpt>
      <trkpt lat="43.42823" lon="6.41382">
        <ele>75.6</ele>
        <time>2016-12-06T13:13:44Z</time>
      </trkpt>
      <trkpt lat="43.42822" lon="6.4138">
        <ele>75.5</ele>
        <time>2016-12-06T13:13:45Z</time>
      </trkpt>
      <trkpt lat="43.42822" lon="6.41359">
        <ele>75.6</ele>
        <time>2016-12-06T13:13:55Z</time>
      </trkpt>
      <trkpt lat="43.42821" lon="6.41347">
        <ele>75.7</ele>
        <time>2016-12-06T13:14:01Z</time>
      </trkpt>
      <trkpt lat="43.42819" lon="6.41336">
        <ele>75.7</ele>
        <time>2016-12-06T13:14:07Z</time>
      </trkpt>
      <trkpt lat="43.42818" lon="6.41324">
        <ele>75.6</ele>
        <time>2016-12-06T13:14:14Z</time>
      </trkpt>
      <trkpt lat="43.42818" lon="6.41312">
        <ele>75.9</ele>
        <time>2016-12-06T13:14:21Z</time>
      </trkpt>
      <trkpt lat="43.42818" lon="6.413">
        <ele>76</ele>
        <time>2016-12-06T13:14:27Z</time>
      </trkpt>
      <trkpt lat="43.42819" lon="6.41289">
        <ele>76</ele>
        <time>2016-12-06T13:14:34Z</time>
      </trkpt>
      <trkpt lat="43.4282" lon="6.41278">
        <ele>76</ele>
        <time>2016-12-06T13:14:40Z</time>
      </trkpt>
      <trkpt lat="43.42821" lon="6.41266">
        <ele>76</ele>
        <time>2016-12-06T13:14:47Z</time>
      </trkpt>
      <trkpt lat="43.42822" lon="6.41264">
        <ele>76</ele>
        <time>2016-12-06T13:14:48Z</time>
      </trkpt>
      <trkpt lat="43.42826" lon="6.41243">
        <ele>75.9</ele>
        <time>2016-12-06T13:15:02Z</time>
      </trkpt>
      <trkpt lat="43.42829" lon="6.41231">
        <ele>75.9</ele>
        <time>2016-12-06T13:15:08Z</time>
      </trkpt>
      <trkpt lat="43.42832" lon="6.41221">
        <ele>76.1</ele>
        <time>2016-12-06T13:15:13Z</time>
      </trkpt>
      <trkpt lat="43.42836" lon="6.41212">
        <ele>76.1</ele>
        <time>2016-12-06T13:15:18Z</time>
      </trkpt>
      <trkpt lat="43.4284" lon="6.41202">
        <ele>76.2</ele>
        <time>2016-12-06T13:15:24Z</time>
      </trkpt>
      <trkpt lat="43.42843" lon="6.41191">
        <ele>76.3</ele>
        <time>2016-12-06T13:15:30Z</time>
      </trkpt>
      <trkpt lat="43.42846" lon="6.4118">
        <ele>76.2</ele>
        <time>2016-12-06T13:15:37Z</time>
      </trkpt>
      <trkpt lat="43.4285" lon="6.41169">
        <ele>76.2</ele>
        <time>2016-12-06T13:15:44Z</time>
      </trkpt>
      <trkpt lat="43.42855" lon="6.41159">
        <ele>76</ele>
        <time>2016-12-06T13:15:50Z</time>
      </trkpt>
      <trkpt lat="43.42855" lon="6.41157">
        <ele>75.9</ele>
        <time>2016-12-06T13:15:51Z</time>
      </trkpt>
      <trkpt lat="43.42864" lon="6.41139">
        <ele>76.3</ele>
        <time>2016-12-06T13:16:02Z</time>
      </trkpt>
      <trkpt lat="43.42867" lon="6.41129">
        <ele>75.7</ele>
        <time>2016-12-06T13:16:08Z</time>
      </trkpt>
      <trkpt lat="43.42872" lon="6.41119">
        <ele>76</ele>
        <time>2016-12-06T13:16:14Z</time>
      </trkpt>
      <trkpt lat="43.42875" lon="6.41107">
        <ele>76.1</ele>
        <time>2016-12-06T13:16:21Z</time>
      </trkpt>
      <trkpt lat="43.42879" lon="6.41098">
        <ele>76.3</ele>
        <time>2016-12-06T13:16:27Z</time>
      </trkpt>
      <trkpt lat="43.42883" lon="6.41087">
        <ele>76.6</ele>
        <time>2016-12-06T13:16:34Z</time>
      </trkpt>
      <trkpt lat="43.42886" lon="6.41076">
        <ele>76.3</ele>
        <time>2016-12-06T13:16:40Z</time>
      </trkpt>
      <trkpt lat="43.42888" lon="6.41064">
        <ele>76.2</ele>
        <time>2016-12-06T13:16:46Z</time>
      </trkpt>
      <trkpt lat="43.42892" lon="6.41053">
        <ele>76.3</ele>
        <time>2016-12-06T13:16:52Z</time>
      </trkpt>
      <trkpt lat="43.42893" lon="6.41051">
        <ele>76.3</ele>
        <time>2016-12-06T13:16:53Z</time>
      </trkpt>
      <trkpt lat="43.42899" lon="6.41033">
        <ele>76</ele>
        <time>2016-12-06T13:17:04Z</time>
      </trkpt>
      <trkpt lat="43.42902" lon="6.41022">
        <ele>75.9</ele>
        <time>2016-12-06T13:17:11Z</time>
      </trkpt>
      <trkpt lat="43.42905" lon="6.41012">
        <ele>76.1</ele>
        <time>2016-12-06T13:17:17Z</time>
      </trkpt>
      <trkpt lat="43.42909" lon="6.41001">
        <ele>76.2</ele>
        <time>2016-12-06T13:17:22Z</time>
      </trkpt>
      <trkpt lat="43.42911" lon="6.40989">
        <ele>76</ele>
        <time>2016-12-06T13:17:29Z</time>
      </trkpt>
      <trkpt lat="43.42914" lon="6.40978">
        <ele>76</ele>
        <time>2016-12-06T13:17:36Z</time>
      </trkpt>
      <trkpt lat="43.42917" lon="6.40966">
        <ele>76.1</ele>
        <time>2016-12-06T13:17:42Z</time>
      </trkpt>
      <trkpt lat="43.4292" lon="6.40956">
        <ele>75.9</ele>
        <time>2016-12-06T13:17:48Z</time>
      </trkpt>
      <trkpt lat="43.42922" lon="6.40946">
        <ele>75.7</ele>
        <time>2016-12-06T13:17:54Z</time>
      </trkpt>
      <trkpt lat="43.42922" lon="6.40944">
        <ele>75.7</ele>
        <time>2016-12-06T13:17:55Z</time>
      </trkpt>
      <trkpt lat="43.42927" lon="6.40924">
        <ele>75.5</ele>
        <time>2016-12-06T13:18:06Z</time>
      </trkpt>
      <trkpt lat="43.4293" lon="6.40914">
        <ele>75.9</ele>
        <time>2016-12-06T13:18:11Z</time>
      </trkpt>
      <trkpt lat="43.42932" lon="6.40904">
        <ele>76.3</ele>
        <time>2016-12-06T13:18:17Z</time>
      </trkpt>
      <trkpt lat="43.42935" lon="6.40893">
        <ele>76.2</ele>
        <time>2016-12-06T13:18:23Z</time>
      </trkpt>
      <trkpt lat="43.42937" lon="6.40882">
        <ele>76.7</ele>
        <time>2016-12-06T13:18:29Z</time>
      </trkpt>
      <trkpt lat="43.42941" lon="6.40872">
        <ele>76.5</ele>
        <time>2016-12-06T13:18:35Z</time>
      </trkpt>
      <trkpt lat="43.42948" lon="6.40865">
        <ele>76.7</ele>
        <time>2016-12-06T13:18:41Z</time>
      </trkpt>
      <trkpt lat="43.42955" lon="6.40859">
        <ele>77</ele>
        <time>2016-12-06T13:18:47Z</time>
      </trkpt>
      <trkpt lat="43.42961" lon="6.40851">
        <ele>76.5</ele>
        <time>2016-12-06T13:18:53Z</time>
      </trkpt>
      <trkpt lat="43.42965" lon="6.40841">
        <ele>76.7</ele>
        <time>2016-12-06T13:19:00Z</time>
      </trkpt>
      <trkpt lat="43.42966" lon="6.40839">
        <ele>76.7</ele>
        <time>2016-12-06T13:19:01Z</time>
      </trkpt>
      <trkpt lat="43.42971" lon="6.40818">
        <ele>75.9</ele>
        <time>2016-12-06T13:19:13Z</time>
      </trkpt>
      <trkpt lat="43.42974" lon="6.40808">
        <ele>75.9</ele>
        <time>2016-12-06T13:19:19Z</time>
      </trkpt>
      <trkpt lat="43.42979" lon="6.40798">
        <ele>75.8</ele>
        <time>2016-12-06T13:19:25Z</time>
      </trkpt>
      <trkpt lat="43.42985" lon="6.4079">
        <ele>76.1</ele>
        <time>2016-12-06T13:19:31Z</time>
      </trkpt>
      <trkpt lat="43.42991" lon="6.40782">
        <ele>75.9</ele>
        <time>2016-12-06T13:19:37Z</time>
      </trkpt>
      <trkpt lat="43.42998" lon="6.40774">
        <ele>76</ele>
        <time>2016-12-06T13:19:43Z</time>
      </trkpt>
      <trkpt lat="43.43004" lon="6.40767">
        <ele>76.2</ele>
        <time>2016-12-06T13:19:49Z</time>
      </trkpt>
      <trkpt lat="43.4301" lon="6.4076">
        <ele>75.9</ele>
        <time>2016-12-06T13:19:55Z</time>
      </trkpt>
      <trkpt lat="43.43017" lon="6.40753">
        <ele>75.9</ele>
        <time>2016-12-06T13:20:01Z</time>
      </trkpt>
      <trkpt lat="43.43017" lon="6.40752">
        <ele>75.9</ele>
        <time>2016-12-06T13:20:02Z</time>
      </trkpt>
      <trkpt lat="43.43029" lon="6.40738">
        <ele>76.1</ele>
        <time>2016-12-06T13:20:13Z</time>
      </trkpt>
      <trkpt lat="43.43035" lon="6.40732">
        <ele>76.5</ele>
        <time>2016-12-06T13:20:19Z</time>
      </trkpt>
      <trkpt lat="43.43042" lon="6.40725">
        <ele>76.6</ele>
        <time>2016-12-06T13:20:26Z</time>
      </trkpt>
      <trkpt lat="43.4305" lon="6.4072">
        <ele>76.7</ele>
        <time>2016-12-06T13:20:33Z</time>
      </trkpt>
      <trkpt lat="43.43058" lon="6.40716">
        <ele>76.5</ele>
        <time>2016-12-06T13:20:40Z</time>
      </trkpt>
      <trkpt lat="43.43066" lon="6.40715">
        <ele>76.6</ele>
        <time>2016-12-06T13:20:48Z</time>
      </trkpt>
      <trkpt lat="43.43074" lon="6.40714">
        <ele>76.7</ele>
        <time>2016-12-06T13:20:55Z</time>
      </trkpt>
      <trkpt lat="43.43082" lon="6.40714">
        <ele>76.2</ele>
        <time>2016-12-06T13:21:01Z</time>
      </trkpt>
      <trkpt lat="43.4309" lon="6.40715">
        <ele>76.3</ele>
        <time>2016-12-06T13:21:10Z</time>
      </trkpt>
      <trkpt lat="43.43092" lon="6.40715">
        <ele>76.3</ele>
        <time>2016-12-06T13:21:11Z</time>
      </trkpt>
      <trkpt lat="43.43106" lon="6.40718">
        <ele>76.2</ele>
        <time>2016-12-06T13:21:22Z</time>
      </trkpt>
      <trkpt lat="43.43115" lon="6.4072">
        <ele>76.3</ele>
        <time>2016-12-06T13:21:28Z</time>
      </trkpt>
      <trkpt lat="43.43123" lon="6.40722">
        <ele>76.4</ele>
        <time>2016-12-06T13:21:34Z</time>
      </trkpt>
      <trkpt lat="43.43131" lon="6.40725">
        <ele>76.3</ele>
        <time>2016-12-06T13:21:41Z</time>
      </trkpt>
      <trkpt lat="43.43138" lon="6.40727">
        <ele>76.1</ele>
        <time>2016-12-06T13:21:47Z</time>
      </trkpt>
      <trkpt lat="43.43147" lon="6.40728">
        <ele>76</ele>
        <time>2016-12-06T13:21:54Z</time>
      </trkpt>
      <trkpt lat="43.43155" lon="6.40731">
        <ele>76</ele>
        <time>2016-12-06T13:22:01Z</time>
      </trkpt>
      <trkpt lat="43.43163" lon="6.40728">
        <ele>75.8</ele>
        <time>2016-12-06T13:22:08Z</time>
      </trkpt>
      <trkpt lat="43.43169" lon="6.40719">
        <ele>75.9</ele>
        <time>2016-12-06T13:22:20Z</time>
      </trkpt>
      <trkpt lat="43.4317" lon="6.40718">
        <ele>76</ele>
        <time>2016-12-06T13:22:21Z</time>
      </trkpt>
      <trkpt lat="43.43173" lon="6.40697">
        <ele>75.6</ele>
        <time>2016-12-06T13:22:36Z</time>
      </trkpt>
      <trkpt lat="43.43168" lon="6.40689">
        <ele>75.2</ele>
        <time>2016-12-06T13:22:46Z</time>
      </trkpt>
      <trkpt lat="43.43161" lon="6.40684">
        <ele>75.3</ele>
        <time>2016-12-06T13:22:56Z</time>
      </trkpt>
      <trkpt lat="43.43152" lon="6.40681">
        <ele>75.5</ele>
        <time>2016-12-06T13:23:03Z</time>
      </trkpt>
      <trkpt lat="43.43144" lon="6.40681">
        <ele>75.9</ele>
        <time>2016-12-06T13:23:08Z</time>
      </trkpt>
      <trkpt lat="43.43136" lon="6.4068">
        <ele>75.8</ele>
        <time>2016-12-06T13:23:13Z</time>
      </trkpt>
      <trkpt lat="43.43129" lon="6.40674">
        <ele>75.9</ele>
        <time>2016-12-06T13:23:20Z</time>
      </trkpt>
      <trkpt lat="43.43124" lon="6.40666">
        <ele>75.9</ele>
        <time>2016-12-06T13:23:26Z</time>
      </trkpt>
      <trkpt lat="43.43123" lon="6.40664">
        <ele>75.8</ele>
        <time>2016-12-06T13:23:27Z</time>
      </trkpt>
      <trkpt lat="43.43112" lon="6.4065">
        <ele>76</ele>
        <time>2016-12-06T13:23:40Z</time>
      </trkpt>
      <trkpt lat="43.43106" lon="6.40641">
        <ele>76</ele>
        <time>2016-12-06T13:23:46Z</time>
      </trkpt>
      <trkpt lat="43.43099" lon="6.40634">
        <ele>75.9</ele>
        <time>2016-12-06T13:23:52Z</time>
      </trkpt>
      <trkpt lat="43.43093" lon="6.40627">
        <ele>76.1</ele>
        <time>2016-12-06T13:23:58Z</time>
      </trkpt>
      <trkpt lat="43.43087" lon="6.40619">
        <ele>75.9</ele>
        <time>2016-12-06T13:24:06Z</time>
      </trkpt>
      <trkpt lat="43.43079" lon="6.40613">
        <ele>76.4</ele>
        <time>2016-12-06T13:24:13Z</time>
      </trkpt>
      <trkpt lat="43.43071" lon="6.4061">
        <ele>76.5</ele>
        <time>2016-12-06T13:24:19Z</time>
      </trkpt>
      <trkpt lat="43.43063" lon="6.40609">
        <ele>76.5</ele>
        <time>2016-12-06T13:24:25Z</time>
      </trkpt>
      <trkpt lat="43.43055" lon="6.40608">
        <ele>76.7</ele>
        <time>2016-12-06T13:24:31Z</time>
      </trkpt>
      <trkpt lat="43.43054" lon="6.40608">
        <ele>76.8</ele>
        <time>2016-12-06T13:24:32Z</time>
      </trkpt>
      <trkpt lat="43.43038" lon="6.40613">
        <ele>76.6</ele>
        <time>2016-12-06T13:24:43Z</time>
      </trkpt>
      <trkpt lat="43.4303" lon="6.40617">
        <ele>76.8</ele>
        <time>2016-12-06T13:24:48Z</time>
      </trkpt>
      <trkpt lat="43.43023" lon="6.40619">
        <ele>76.6</ele>
        <time>2016-12-06T13:24:54Z</time>
      </trkpt>
      <trkpt lat="43.43015" lon="6.40621">
        <ele>76.4</ele>
        <time>2016-12-06T13:25:00Z</time>
      </trkpt>
      <trkpt lat="43.43007" lon="6.40624">
        <ele>76.1</ele>
        <time>2016-12-06T13:25:06Z</time>
      </trkpt>
      <trkpt lat="43.42999" lon="6.40626">
        <ele>76.1</ele>
        <time>2016-12-06T13:25:12Z</time>
      </trkpt>
      <trkpt lat="43.42991" lon="6.40628">
        <ele>75.2</ele>
        <time>2016-12-06T13:25:18Z</time>
      </trkpt>
      <trkpt lat="43.42983" lon="6.4063">
        <ele>74.9</ele>
        <time>2016-12-06T13:25:24Z</time>
      </trkpt>
      <trkpt lat="43.42974" lon="6.40631">
        <ele>75</ele>
        <time>2016-12-06T13:25:30Z</time>
      </trkpt>
      <trkpt lat="43.42965" lon="6.40632">
        <ele>74.3</ele>
        <time>2016-12-06T13:25:36Z</time>
      </trkpt>
      <trkpt lat="43.42964" lon="6.40632">
        <ele>74.2</ele>
        <time>2016-12-06T13:25:37Z</time>
      </trkpt>
      <trkpt lat="43.42949" lon="6.40629">
        <ele>74.1</ele>
        <time>2016-12-06T13:25:48Z</time>
      </trkpt>
      <trkpt lat="43.42941" lon="6.40626">
        <ele>73.8</ele>
        <time>2016-12-06T13:25:54Z</time>
      </trkpt>
      <trkpt lat="43.42934" lon="6.40622">
        <ele>73.7</ele>
        <time>2016-12-06T13:26:00Z</time>
      </trkpt>
      <trkpt lat="43.42927" lon="6.40616">
        <ele>73.8</ele>
        <time>2016-12-06T13:26:06Z</time>
      </trkpt>
      <trkpt lat="43.42919" lon="6.40611">
        <ele>73.1</ele>
        <time>2016-12-06T13:26:13Z</time>
      </trkpt>
      <trkpt lat="43.42912" lon="6.40605">
        <ele>72.8</ele>
        <time>2016-12-06T13:26:19Z</time>
      </trkpt>
      <trkpt lat="43.42905" lon="6.40597">
        <ele>72.6</ele>
        <time>2016-12-06T13:26:25Z</time>
      </trkpt>
      <trkpt lat="43.42899" lon="6.4059">
        <ele>72.2</ele>
        <time>2016-12-06T13:26:31Z</time>
      </trkpt>
      <trkpt lat="43.42893" lon="6.40581">
        <ele>72</ele>
        <time>2016-12-06T13:26:38Z</time>
      </trkpt>
      <trkpt lat="43.42892" lon="6.4058">
        <ele>71.9</ele>
        <time>2016-12-06T13:26:39Z</time>
      </trkpt>
      <trkpt lat="43.42884" lon="6.40563">
        <ele>71.1</ele>
        <time>2016-12-06T13:26:50Z</time>
      </trkpt>
      <trkpt lat="43.42881" lon="6.40552">
        <ele>71.2</ele>
        <time>2016-12-06T13:26:56Z</time>
      </trkpt>
      <trkpt lat="43.42878" lon="6.40542">
        <ele>71.1</ele>
        <time>2016-12-06T13:27:01Z</time>
      </trkpt>
      <trkpt lat="43.42874" lon="6.40531">
        <ele>70.7</ele>
        <time>2016-12-06T13:27:07Z</time>
      </trkpt>
      <trkpt lat="43.4287" lon="6.40522">
        <ele>70.4</ele>
        <time>2016-12-06T13:27:13Z</time>
      </trkpt>
      <trkpt lat="43.42866" lon="6.40511">
        <ele>69.2</ele>
        <time>2016-12-06T13:27:20Z</time>
      </trkpt>
      <trkpt lat="43.42864" lon="6.40499">
        <ele>69.4</ele>
        <time>2016-12-06T13:27:27Z</time>
      </trkpt>
      <trkpt lat="43.42861" lon="6.40488">
        <ele>69.5</ele>
        <time>2016-12-06T13:27:33Z</time>
      </trkpt>
      <trkpt lat="43.42858" lon="6.40477">
        <ele>68.9</ele>
        <time>2016-12-06T13:27:39Z</time>
      </trkpt>
      <trkpt lat="43.42858" lon="6.40475">
        <ele>69</ele>
        <time>2016-12-06T13:27:40Z</time>
      </trkpt>
      <trkpt lat="43.42851" lon="6.40456">
        <ele>68.9</ele>
        <time>2016-12-06T13:27:51Z</time>
      </trkpt>
      <trkpt lat="43.42848" lon="6.40447">
        <ele>69</ele>
        <time>2016-12-06T13:27:57Z</time>
      </trkpt>
      <trkpt lat="43.42846" lon="6.40435">
        <ele>68.7</ele>
        <time>2016-12-06T13:28:03Z</time>
      </trkpt>
      <trkpt lat="43.42844" lon="6.40424">
        <ele>68.5</ele>
        <time>2016-12-06T13:28:09Z</time>
      </trkpt>
      <trkpt lat="43.42842" lon="6.40413">
        <ele>68.1</ele>
        <time>2016-12-06T13:28:15Z</time>
      </trkpt>
      <trkpt lat="43.4284" lon="6.40402">
        <ele>67.8</ele>
        <time>2016-12-06T13:28:21Z</time>
      </trkpt>
      <trkpt lat="43.42839" lon="6.4039">
        <ele>67.6</ele>
        <time>2016-12-06T13:28:27Z</time>
      </trkpt>
      <trkpt lat="43.42837" lon="6.40379">
        <ele>67.5</ele>
        <time>2016-12-06T13:28:33Z</time>
      </trkpt>
      <trkpt lat="43.42836" lon="6.40368">
        <ele>67.2</ele>
        <time>2016-12-06T13:28:39Z</time>
      </trkpt>
      <trkpt lat="43.42834" lon="6.40356">
        <ele>67.2</ele>
        <time>2016-12-06T13:28:46Z</time>
      </trkpt>
      <trkpt lat="43.42834" lon="6.40354">
        <ele>67.3</ele>
        <time>2016-12-06T13:28:47Z</time>
      </trkpt>
      <trkpt lat="43.42831" lon="6.40334">
        <ele>67.2</ele>
        <time>2016-12-06T13:28:59Z</time>
      </trkpt>
      <trkpt lat="43.4283" lon="6.40321">
        <ele>67</ele>
        <time>2016-12-06T13:29:05Z</time>
      </trkpt>
      <trkpt lat="43.42828" lon="6.40311">
        <ele>66.7</ele>
        <time>2016-12-06T13:29:11Z</time>
      </trkpt>
      <trkpt lat="43.42827" lon="6.40299">
        <ele>66.9</ele>
        <time>2016-12-06T13:29:17Z</time>
      </trkpt>
      <trkpt lat="43.42825" lon="6.40288">
        <ele>66.3</ele>
        <time>2016-12-06T13:29:23Z</time>
      </trkpt>
      <trkpt lat="43.42823" lon="6.40276">
        <ele>65.9</ele>
        <time>2016-12-06T13:29:30Z</time>
      </trkpt>
      <trkpt lat="43.4282" lon="6.40265">
        <ele>65.9</ele>
        <time>2016-12-06T13:29:37Z</time>
      </trkpt>
      <trkpt lat="43.42818" lon="6.40253">
        <ele>66.8</ele>
        <time>2016-12-06T13:29:44Z</time>
      </trkpt>
      <trkpt lat="43.42817" lon="6.40241">
        <ele>66.9</ele>
        <time>2016-12-06T13:29:50Z</time>
      </trkpt>
      <trkpt lat="43.42817" lon="6.4024">
        <ele>66.8</ele>
        <time>2016-12-06T13:29:51Z</time>
      </trkpt>
      <trkpt lat="43.42814" lon="6.40218">
        <ele>66.2</ele>
        <time>2016-12-06T13:30:03Z</time>
      </trkpt>
      <trkpt lat="43.42814" lon="6.40207">
        <ele>66.3</ele>
        <time>2016-12-06T13:30:09Z</time>
      </trkpt>
      <trkpt lat="43.42815" lon="6.40196">
        <ele>66.6</ele>
        <time>2016-12-06T13:30:14Z</time>
      </trkpt>
      <trkpt lat="43.42818" lon="6.40185">
        <ele>66.9</ele>
        <time>2016-12-06T13:30:21Z</time>
      </trkpt>
      <trkpt lat="43.42822" lon="6.40176">
        <ele>66.9</ele>
        <time>2016-12-06T13:30:26Z</time>
      </trkpt>
      <trkpt lat="43.42826" lon="6.40167">
        <ele>67.4</ele>
        <time>2016-12-06T13:30:31Z</time>
      </trkpt>
      <trkpt lat="43.42831" lon="6.40159">
        <ele>67.4</ele>
        <time>2016-12-06T13:30:36Z</time>
      </trkpt>
      <trkpt lat="43.42836" lon="6.40151">
        <ele>67.2</ele>
        <time>2016-12-06T13:30:41Z</time>
      </trkpt>
      <trkpt lat="43.4284" lon="6.40142">
        <ele>67.4</ele>
        <time>2016-12-06T13:30:46Z</time>
      </trkpt>
      <trkpt lat="43.42846" lon="6.40133">
        <ele>67.4</ele>
        <time>2016-12-06T13:30:51Z</time>
      </trkpt>
      <trkpt lat="43.42846" lon="6.40131">
        <ele>67.3</ele>
        <time>2016-12-06T13:30:52Z</time>
      </trkpt>
      <trkpt lat="43.42852" lon="6.40111">
        <ele>67</ele>
        <time>2016-12-06T13:31:03Z</time>
      </trkpt>
      <trkpt lat="43.42853" lon="6.40099">
        <ele>66.9</ele>
        <time>2016-12-06T13:31:09Z</time>
      </trkpt>
      <trkpt lat="43.42854" lon="6.40087">
        <ele>67</ele>
        <time>2016-12-06T13:31:14Z</time>
      </trkpt>
      <trkpt lat="43.42855" lon="6.40075">
        <ele>67.2</ele>
        <time>2016-12-06T13:31:20Z</time>
      </trkpt>
      <trkpt lat="43.42855" lon="6.40065">
        <ele>67.2</ele>
        <time>2016-12-06T13:31:25Z</time>
      </trkpt>
      <trkpt lat="43.42855" lon="6.40053">
        <ele>67</ele>
        <time>2016-12-06T13:31:31Z</time>
      </trkpt>
      <trkpt lat="43.42856" lon="6.40043">
        <ele>67.3</ele>
        <time>2016-12-06T13:31:36Z</time>
      </trkpt>
      <trkpt lat="43.42856" lon="6.40031">
        <ele>67.4</ele>
        <time>2016-12-06T13:31:42Z</time>
      </trkpt>
      <trkpt lat="43.42856" lon="6.4002">
        <ele>67.5</ele>
        <time>2016-12-06T13:31:48Z</time>
      </trkpt>
      <trkpt lat="43.42856" lon="6.40009">
        <ele>66.8</ele>
        <time>2016-12-06T13:31:54Z</time>
      </trkpt>
      <trkpt lat="43.42856" lon="6.40007">
        <ele>66.8</ele>
        <time>2016-12-06T13:31:55Z</time>
      </trkpt>
      <trkpt lat="43.42858" lon="6.39987">
        <ele>67.1</ele>
        <time>2016-12-06T13:32:05Z</time>
      </trkpt>
      <trkpt lat="43.4286" lon="6.39975">
        <ele>67</ele>
        <time>2016-12-06T13:32:11Z</time>
      </trkpt>
      <trkpt lat="43.42863" lon="6.39964">
        <ele>67.1</ele>
        <time>2016-12-06T13:32:17Z</time>
      </trkpt>
      <trkpt lat="43.42867" lon="6.39955">
        <ele>67</ele>
        <time>2016-12-06T13:32:23Z</time>
      </trkpt>
      <trkpt lat="43.42873" lon="6.39947">
        <ele>67</ele>
        <time>2016-12-06T13:32:29Z</time>
      </trkpt>
      <trkpt lat="43.4288" lon="6.3994">
        <ele>67.6</ele>
        <time>2016-12-06T13:32:35Z</time>
      </trkpt>
      <trkpt lat="43.42885" lon="6.39932">
        <ele>67.6</ele>
        <time>2016-12-06T13:32:41Z</time>
      </trkpt>
      <trkpt lat="43.42891" lon="6.39925">
        <ele>67.9</ele>
        <time>2016-12-06T13:32:47Z</time>
      </trkpt>
      <trkpt lat="43.42896" lon="6.39917">
        <ele>67.8</ele>
        <time>2016-12-06T13:32:53Z</time>
      </trkpt>
      <trkpt lat="43.42902" lon="6.3991">
        <ele>67.9</ele>
        <time>2016-12-06T13:32:59Z</time>
      </trkpt>
      <trkpt lat="43.42903" lon="6.39908">
        <ele>67.9</ele>
        <time>2016-12-06T13:33:00Z</time>
      </trkpt>
      <trkpt lat="43.42917" lon="6.39897">
        <ele>67.6</ele>
        <time>2016-12-06T13:33:13Z</time>
      </trkpt>
      <trkpt lat="43.42924" lon="6.39893">
        <ele>67.9</ele>
        <time>2016-12-06T13:33:20Z</time>
      </trkpt>
      <trkpt lat="43.42932" lon="6.39888">
        <ele>68.6</ele>
        <time>2016-12-06T13:33:27Z</time>
      </trkpt>
      <trkpt lat="43.4294" lon="6.39884">
        <ele>68.6</ele>
        <time>2016-12-06T13:33:34Z</time>
      </trkpt>
      <trkpt lat="43.42947" lon="6.39878">
        <ele>69.3</ele>
        <time>2016-12-06T13:33:41Z</time>
      </trkpt>
      <trkpt lat="43.42954" lon="6.39872">
        <ele>69.6</ele>
        <time>2016-12-06T13:33:47Z</time>
      </trkpt>
      <trkpt lat="43.42961" lon="6.39865">
        <ele>69.7</ele>
        <time>2016-12-06T13:33:53Z</time>
      </trkpt>
      <trkpt lat="43.42968" lon="6.39858">
        <ele>70</ele>
        <time>2016-12-06T13:33:59Z</time>
      </trkpt>
      <trkpt lat="43.42975" lon="6.39852">
        <ele>69.9</ele>
        <time>2016-12-06T13:34:05Z</time>
      </trkpt>
      <trkpt lat="43.42976" lon="6.39851">
        <ele>69.8</ele>
        <time>2016-12-06T13:34:06Z</time>
      </trkpt>
      <trkpt lat="43.42989" lon="6.39842">
        <ele>70.4</ele>
        <time>2016-12-06T13:34:19Z</time>
      </trkpt>
      <trkpt lat="43.42996" lon="6.39837">
        <ele>70.8</ele>
        <time>2016-12-06T13:34:27Z</time>
      </trkpt>
      <trkpt lat="43.43004" lon="6.39833">
        <ele>70.9</ele>
        <time>2016-12-06T13:34:33Z</time>
      </trkpt>
      <trkpt lat="43.43011" lon="6.39827">
        <ele>70.8</ele>
        <time>2016-12-06T13:34:42Z</time>
      </trkpt>
      <trkpt lat="43.4302" lon="6.39824">
        <ele>71.3</ele>
        <time>2016-12-06T13:35:00Z</time>
      </trkpt>
      <trkpt lat="43.43026" lon="6.39833">
        <ele>72.9</ele>
        <time>2016-12-06T13:36:31Z</time>
      </trkpt>
      <trkpt lat="43.43026" lon="6.39834">
        <ele>72.9</ele>
        <time>2016-12-06T13:36:32Z</time>
      </trkpt>
      <trkpt lat="43.4302" lon="6.39825">
        <ele>72.6</ele>
        <time>2016-12-06T13:38:28Z</time>
      </trkpt>
      <trkpt lat="43.43019" lon="6.39825">
        <ele>72.6</ele>
        <time>2016-12-06T13:38:29Z</time>
      </trkpt>
      <trkpt lat="43.43025" lon="6.39808">
        <ele>72.6</ele>
        <time>2016-12-06T13:39:36Z</time>
      </trkpt>
      <trkpt lat="43.43025" lon="6.39809">
        <ele>72.6</ele>
        <time>2016-12-06T13:39:37Z</time>
      </trkpt>
      <trkpt lat="43.43011" lon="6.39822">
        <ele>72.2</ele>
        <time>2016-12-06T13:40:19Z</time>
      </trkpt>
      <trkpt lat="43.43004" lon="6.3983">
        <ele>71.5</ele>
        <time>2016-12-06T13:40:30Z</time>
      </trkpt>
      <trkpt lat="43.42996" lon="6.39836">
        <ele>71.9</ele>
        <time>2016-12-06T13:40:41Z</time>
      </trkpt>
      <trkpt lat="43.42995" lon="6.39837">
        <ele>71.9</ele>
        <time>2016-12-06T13:40:42Z</time>
      </trkpt>
      <trkpt lat="43.4298" lon="6.39846">
        <ele>71.5</ele>
        <time>2016-12-06T13:40:56Z</time>
      </trkpt>
      <trkpt lat="43.42973" lon="6.39851">
        <ele>71.2</ele>
        <time>2016-12-06T13:41:03Z</time>
      </trkpt>
      <trkpt lat="43.42965" lon="6.39855">
        <ele>70.9</ele>
        <time>2016-12-06T13:41:09Z</time>
      </trkpt>
      <trkpt lat="43.42959" lon="6.39862">
        <ele>70.7</ele>
        <time>2016-12-06T13:41:15Z</time>
      </trkpt>
      <trkpt lat="43.42952" lon="6.3987">
        <ele>70.5</ele>
        <time>2016-12-06T13:41:22Z</time>
      </trkpt>
      <trkpt lat="43.42944" lon="6.39875">
        <ele>70.6</ele>
        <time>2016-12-06T13:41:30Z</time>
      </trkpt>
      <trkpt lat="43.42937" lon="6.39882">
        <ele>69.9</ele>
        <time>2016-12-06T13:41:39Z</time>
      </trkpt>
      <trkpt lat="43.42931" lon="6.39888">
        <ele>69.9</ele>
        <time>2016-12-06T13:41:45Z</time>
      </trkpt>
      <trkpt lat="43.4293" lon="6.39889">
        <ele>69.8</ele>
        <time>2016-12-06T13:41:46Z</time>
      </trkpt>
      <trkpt lat="43.42915" lon="6.399">
        <ele>68.6</ele>
        <time>2016-12-06T13:41:59Z</time>
      </trkpt>
      <trkpt lat="43.42907" lon="6.39905">
        <ele>68.7</ele>
        <time>2016-12-06T13:42:06Z</time>
      </trkpt>
      <trkpt lat="43.429" lon="6.39909">
        <ele>69.4</ele>
        <time>2016-12-06T13:42:12Z</time>
      </trkpt>
      <trkpt lat="43.42893" lon="6.39914">
        <ele>69.6</ele>
        <time>2016-12-06T13:42:18Z</time>
      </trkpt>
      <trkpt lat="43.42885" lon="6.39918">
        <ele>69.1</ele>
        <time>2016-12-06T13:42:24Z</time>
      </trkpt>
      <trkpt lat="43.42878" lon="6.39923">
        <ele>68.5</ele>
        <time>2016-12-06T13:42:30Z</time>
      </trkpt>
      <trkpt lat="43.42871" lon="6.39929">
        <ele>68.1</ele>
        <time>2016-12-06T13:42:36Z</time>
      </trkpt>
      <trkpt lat="43.42865" lon="6.39937">
        <ele>68.3</ele>
        <time>2016-12-06T13:42:43Z</time>
      </trkpt>
      <trkpt lat="43.42862" lon="6.39926">
        <ele>68.1</ele>
        <time>2016-12-06T13:42:53Z</time>
      </trkpt>
      <trkpt lat="43.42862" lon="6.39925">
        <ele>67.9</ele>
        <time>2016-12-06T13:42:54Z</time>
      </trkpt>
      <trkpt lat="43.42859" lon="6.39904">
        <ele>67.7</ele>
        <time>2016-12-06T13:43:11Z</time>
      </trkpt>
      <trkpt lat="43.42855" lon="6.39894">
        <ele>67.8</ele>
        <time>2016-12-06T13:43:18Z</time>
      </trkpt>
      <trkpt lat="43.42853" lon="6.39882">
        <ele>67.3</ele>
        <time>2016-12-06T13:43:25Z</time>
      </trkpt>
      <trkpt lat="43.42851" lon="6.3987">
        <ele>67.2</ele>
        <time>2016-12-06T13:43:32Z</time>
      </trkpt>
      <trkpt lat="43.4285" lon="6.39858">
        <ele>67.1</ele>
        <time>2016-12-06T13:43:39Z</time>
      </trkpt>
      <trkpt lat="43.4285" lon="6.39846">
        <ele>66.9</ele>
        <time>2016-12-06T13:43:46Z</time>
      </trkpt>
      <trkpt lat="43.42852" lon="6.39835">
        <ele>67</ele>
        <time>2016-12-06T13:43:53Z</time>
      </trkpt>
      <trkpt lat="43.42853" lon="6.39823">
        <ele>67.3</ele>
        <time>2016-12-06T13:44:00Z</time>
      </trkpt>
      <trkpt lat="43.42854" lon="6.39821">
        <ele>67.3</ele>
        <time>2016-12-06T13:44:01Z</time>
      </trkpt>
      <trkpt lat="43.42859" lon="6.39802">
        <ele>66.9</ele>
        <time>2016-12-06T13:44:13Z</time>
      </trkpt>
      <trkpt lat="43.42863" lon="6.39792">
        <ele>67</ele>
        <time>2016-12-06T13:44:19Z</time>
      </trkpt>
      <trkpt lat="43.42867" lon="6.39782">
        <ele>66.8</ele>
        <time>2016-12-06T13:44:25Z</time>
      </trkpt>
      <trkpt lat="43.4287" lon="6.39773">
        <ele>67</ele>
        <time>2016-12-06T13:44:31Z</time>
      </trkpt>
      <trkpt lat="43.42874" lon="6.39762">
        <ele>66.8</ele>
        <time>2016-12-06T13:44:37Z</time>
      </trkpt>
      <trkpt lat="43.42878" lon="6.39752">
        <ele>66.8</ele>
        <time>2016-12-06T13:44:43Z</time>
      </trkpt>
      <trkpt lat="43.42882" lon="6.39743">
        <ele>67.6</ele>
        <time>2016-12-06T13:44:49Z</time>
      </trkpt>
      <trkpt lat="43.42886" lon="6.39733">
        <ele>67.6</ele>
        <time>2016-12-06T13:44:55Z</time>
      </trkpt>
      <trkpt lat="43.42889" lon="6.39722">
        <ele>67.7</ele>
        <time>2016-12-06T13:45:02Z</time>
      </trkpt>
      <trkpt lat="43.4289" lon="6.3972">
        <ele>67.8</ele>
        <time>2016-12-06T13:45:03Z</time>
      </trkpt>
      <trkpt lat="43.42897" lon="6.39702">
        <ele>67.6</ele>
        <time>2016-12-06T13:45:14Z</time>
      </trkpt>
      <trkpt lat="43.429" lon="6.39692">
        <ele>67.5</ele>
        <time>2016-12-06T13:45:20Z</time>
      </trkpt>
      <trkpt lat="43.42904" lon="6.39681">
        <ele>67.1</ele>
        <time>2016-12-06T13:45:28Z</time>
      </trkpt>
      <trkpt lat="43.42907" lon="6.39671">
        <ele>67.1</ele>
        <time>2016-12-06T13:45:34Z</time>
      </trkpt>
      <trkpt lat="43.4291" lon="6.39662">
        <ele>66.9</ele>
        <time>2016-12-06T13:45:39Z</time>
      </trkpt>
      <trkpt lat="43.42913" lon="6.39651">
        <ele>67</ele>
        <time>2016-12-06T13:45:44Z</time>
      </trkpt>
      <trkpt lat="43.42916" lon="6.3964">
        <ele>67</ele>
        <time>2016-12-06T13:45:51Z</time>
      </trkpt>
      <trkpt lat="43.42919" lon="6.39629">
        <ele>67</ele>
        <time>2016-12-06T13:45:57Z</time>
      </trkpt>
      <trkpt lat="43.42922" lon="6.39617">
        <ele>66.8</ele>
        <time>2016-12-06T13:46:03Z</time>
      </trkpt>
      <trkpt lat="43.42925" lon="6.39607">
        <ele>67.2</ele>
        <time>2016-12-06T13:46:09Z</time>
      </trkpt>
      <trkpt lat="43.42925" lon="6.39605">
        <ele>67.2</ele>
        <time>2016-12-06T13:46:10Z</time>
      </trkpt>
      <trkpt lat="43.42931" lon="6.39586">
        <ele>66.6</ele>
        <time>2016-12-06T13:46:21Z</time>
      </trkpt>
      <trkpt lat="43.42934" lon="6.39575">
        <ele>67.1</ele>
        <time>2016-12-06T13:46:28Z</time>
      </trkpt>
      <trkpt lat="43.42937" lon="6.39564">
        <ele>66.6</ele>
        <time>2016-12-06T13:46:34Z</time>
      </trkpt>
      <trkpt lat="43.4294" lon="6.39553">
        <ele>66.1</ele>
        <time>2016-12-06T13:46:40Z</time>
      </trkpt>
      <trkpt lat="43.42943" lon="6.39544">
        <ele>66.1</ele>
        <time>2016-12-06T13:46:45Z</time>
      </trkpt>
      <trkpt lat="43.42947" lon="6.39534">
        <ele>66</ele>
        <time>2016-12-06T13:46:51Z</time>
      </trkpt>
      <trkpt lat="43.42951" lon="6.39523">
        <ele>65.9</ele>
        <time>2016-12-06T13:46:58Z</time>
      </trkpt>
      <trkpt lat="43.42955" lon="6.39513">
        <ele>65.7</ele>
        <time>2016-12-06T13:47:03Z</time>
      </trkpt>
      <trkpt lat="43.4296" lon="6.39503">
        <ele>66.4</ele>
        <time>2016-12-06T13:47:11Z</time>
      </trkpt>
      <trkpt lat="43.42961" lon="6.39501">
        <ele>66.5</ele>
        <time>2016-12-06T13:47:12Z</time>
      </trkpt>
      <trkpt lat="43.42971" lon="6.39486">
        <ele>66.2</ele>
        <time>2016-12-06T13:47:23Z</time>
      </trkpt>
      <trkpt lat="43.42977" lon="6.39477">
        <ele>66.6</ele>
        <time>2016-12-06T13:47:31Z</time>
      </trkpt>
      <trkpt lat="43.42982" lon="6.39467">
        <ele>66.4</ele>
        <time>2016-12-06T13:47:37Z</time>
      </trkpt>
      <trkpt lat="43.42986" lon="6.39457">
        <ele>66.2</ele>
        <time>2016-12-06T13:47:42Z</time>
      </trkpt>
      <trkpt lat="43.4299" lon="6.39446">
        <ele>66.6</ele>
        <time>2016-12-06T13:47:47Z</time>
      </trkpt>
      <trkpt lat="43.42994" lon="6.39436">
        <ele>67.1</ele>
        <time>2016-12-06T13:47:53Z</time>
      </trkpt>
      <trkpt lat="43.42997" lon="6.39426">
        <ele>67.4</ele>
        <time>2016-12-06T13:47:59Z</time>
      </trkpt>
      <trkpt lat="43.43001" lon="6.39415">
        <ele>67.7</ele>
        <time>2016-12-06T13:48:06Z</time>
      </trkpt>
      <trkpt lat="43.43004" lon="6.39405">
        <ele>67.7</ele>
        <time>2016-12-06T13:48:12Z</time>
      </trkpt>
      <trkpt lat="43.43005" lon="6.39403">
        <ele>67.7</ele>
        <time>2016-12-06T13:48:13Z</time>
      </trkpt>
      <trkpt lat="43.43012" lon="6.39383">
        <ele>67.8</ele>
        <time>2016-12-06T13:48:22Z</time>
      </trkpt>
      <trkpt lat="43.43016" lon="6.39373">
        <ele>67.8</ele>
        <time>2016-12-06T13:48:28Z</time>
      </trkpt>
      <trkpt lat="43.43019" lon="6.39364">
        <ele>67.9</ele>
        <time>2016-12-06T13:48:32Z</time>
      </trkpt>
      <trkpt lat="43.43022" lon="6.39353">
        <ele>68.2</ele>
        <time>2016-12-06T13:48:38Z</time>
      </trkpt>
      <trkpt lat="43.43025" lon="6.39343">
        <ele>68.6</ele>
        <time>2016-12-06T13:48:43Z</time>
      </trkpt>
      <trkpt lat="43.43029" lon="6.39333">
        <ele>68.7</ele>
        <time>2016-12-06T13:48:50Z</time>
      </trkpt>
      <trkpt lat="43.43033" lon="6.39323">
        <ele>68.8</ele>
        <time>2016-12-06T13:48:56Z</time>
      </trkpt>
      <trkpt lat="43.43036" lon="6.39312">
        <ele>69.1</ele>
        <time>2016-12-06T13:49:01Z</time>
      </trkpt>
      <trkpt lat="43.43039" lon="6.39302">
        <ele>69.3</ele>
        <time>2016-12-06T13:49:07Z</time>
      </trkpt>
      <trkpt lat="43.43042" lon="6.39291">
        <ele>69</ele>
        <time>2016-12-06T13:49:13Z</time>
      </trkpt>
      <trkpt lat="43.43044" lon="6.3928">
        <ele>69</ele>
        <time>2016-12-06T13:49:19Z</time>
      </trkpt>
      <trkpt lat="43.43045" lon="6.39278">
        <ele>68.8</ele>
        <time>2016-12-06T13:49:20Z</time>
      </trkpt>
      <trkpt lat="43.4305" lon="6.39258">
        <ele>68.5</ele>
        <time>2016-12-06T13:49:30Z</time>
      </trkpt>
      <trkpt lat="43.43053" lon="6.39247">
        <ele>68.2</ele>
        <time>2016-12-06T13:49:37Z</time>
      </trkpt>
      <trkpt lat="43.43056" lon="6.39235">
        <ele>68</ele>
        <time>2016-12-06T13:49:43Z</time>
      </trkpt>
      <trkpt lat="43.43059" lon="6.39224">
        <ele>67.5</ele>
        <time>2016-12-06T13:49:50Z</time>
      </trkpt>
      <trkpt lat="43.43062" lon="6.39213">
        <ele>67.2</ele>
        <time>2016-12-06T13:49:56Z</time>
      </trkpt>
      <trkpt lat="43.43066" lon="6.39203">
        <ele>67.2</ele>
        <time>2016-12-06T13:50:01Z</time>
      </trkpt>
      <trkpt lat="43.4307" lon="6.39192">
        <ele>67.1</ele>
        <time>2016-12-06T13:50:07Z</time>
      </trkpt>
      <trkpt lat="43.43073" lon="6.39182">
        <ele>67.1</ele>
        <time>2016-12-06T13:50:13Z</time>
      </trkpt>
      <trkpt lat="43.43075" lon="6.39172">
        <ele>66.7</ele>
        <time>2016-12-06T13:50:19Z</time>
      </trkpt>
      <trkpt lat="43.43078" lon="6.3916">
        <ele>66.8</ele>
        <time>2016-12-06T13:50:25Z</time>
      </trkpt>
      <trkpt lat="43.43078" lon="6.39158">
        <ele>66.7</ele>
        <time>2016-12-06T13:50:26Z</time>
      </trkpt>
      <trkpt lat="43.43081" lon="6.39136">
        <ele>67.2</ele>
        <time>2016-12-06T13:50:39Z</time>
      </trkpt>
      <trkpt lat="43.43082" lon="6.39125">
        <ele>67.3</ele>
        <time>2016-12-06T13:50:45Z</time>
      </trkpt>
      <trkpt lat="43.43083" lon="6.39114">
        <ele>67.4</ele>
        <time>2016-12-06T13:50:51Z</time>
      </trkpt>
      <trkpt lat="43.43084" lon="6.39102">
        <ele>68</ele>
        <time>2016-12-06T13:50:59Z</time>
      </trkpt>
      <trkpt lat="43.43086" lon="6.3909">
        <ele>68</ele>
        <time>2016-12-06T13:51:05Z</time>
      </trkpt>
      <trkpt lat="43.43088" lon="6.39079">
        <ele>67.8</ele>
        <time>2016-12-06T13:51:11Z</time>
      </trkpt>
      <trkpt lat="43.43089" lon="6.39068">
        <ele>67.4</ele>
        <time>2016-12-06T13:51:17Z</time>
      </trkpt>
      <trkpt lat="43.4309" lon="6.39057">
        <ele>67.4</ele>
        <time>2016-12-06T13:51:24Z</time>
      </trkpt>
      <trkpt lat="43.43092" lon="6.39047">
        <ele>67.8</ele>
        <time>2016-12-06T13:51:28Z</time>
      </trkpt>
      <trkpt lat="43.43092" lon="6.39044">
        <ele>67.9</ele>
        <time>2016-12-06T13:51:29Z</time>
      </trkpt>
      <trkpt lat="43.43095" lon="6.39025">
        <ele>67.6</ele>
        <time>2016-12-06T13:51:39Z</time>
      </trkpt>
      <trkpt lat="43.43096" lon="6.39014">
        <ele>67.6</ele>
        <time>2016-12-06T13:51:46Z</time>
      </trkpt>
      <trkpt lat="43.43097" lon="6.39003">
        <ele>67.8</ele>
        <time>2016-12-06T13:51:51Z</time>
      </trkpt>
      <trkpt lat="43.43099" lon="6.38992">
        <ele>67.6</ele>
        <time>2016-12-06T13:51:56Z</time>
      </trkpt>
      <trkpt lat="43.431" lon="6.38982">
        <ele>67.5</ele>
        <time>2016-12-06T13:52:01Z</time>
      </trkpt>
      <trkpt lat="43.431" lon="6.38971">
        <ele>67.4</ele>
        <time>2016-12-06T13:52:06Z</time>
      </trkpt>
      <trkpt lat="43.431" lon="6.3896">
        <ele>67.8</ele>
        <time>2016-12-06T13:52:11Z</time>
      </trkpt>
      <trkpt lat="43.43099" lon="6.38948">
        <ele>67.7</ele>
        <time>2016-12-06T13:52:16Z</time>
      </trkpt>
      <trkpt lat="43.43097" lon="6.38938">
        <ele>67.7</ele>
        <time>2016-12-06T13:52:22Z</time>
      </trkpt>
      <trkpt lat="43.43095" lon="6.38927">
        <ele>67.8</ele>
        <time>2016-12-06T13:52:28Z</time>
      </trkpt>
      <trkpt lat="43.43093" lon="6.38916">
        <ele>67.9</ele>
        <time>2016-12-06T13:52:34Z</time>
      </trkpt>
      <trkpt lat="43.43092" lon="6.38914">
        <ele>67.9</ele>
        <time>2016-12-06T13:52:35Z</time>
      </trkpt>
      <trkpt lat="43.43092" lon="6.38893">
        <ele>68.7</ele>
        <time>2016-12-06T13:52:45Z</time>
      </trkpt>
      <trkpt lat="43.43091" lon="6.38882">
        <ele>69</ele>
        <time>2016-12-06T13:52:52Z</time>
      </trkpt>
      <trkpt lat="43.43089" lon="6.3887">
        <ele>69.1</ele>
        <time>2016-12-06T13:52:59Z</time>
      </trkpt>
      <trkpt lat="43.43086" lon="6.38859">
        <ele>69.6</ele>
        <time>2016-12-06T13:53:06Z</time>
      </trkpt>
      <trkpt lat="43.43082" lon="6.38848">
        <ele>69.9</ele>
        <time>2016-12-06T13:53:12Z</time>
      </trkpt>
      <trkpt lat="43.43078" lon="6.38838">
        <ele>70</ele>
        <time>2016-12-06T13:53:18Z</time>
      </trkpt>
      <trkpt lat="43.43074" lon="6.38828">
        <ele>70.1</ele>
        <time>2016-12-06T13:53:24Z</time>
      </trkpt>
      <trkpt lat="43.4307" lon="6.38818">
        <ele>70</ele>
        <time>2016-12-06T13:53:30Z</time>
      </trkpt>
      <trkpt lat="43.43067" lon="6.38807">
        <ele>69.4</ele>
        <time>2016-12-06T13:53:37Z</time>
      </trkpt>
      <trkpt lat="43.43066" lon="6.38806">
        <ele>69.3</ele>
        <time>2016-12-06T13:53:38Z</time>
      </trkpt>
      <trkpt lat="43.43057" lon="6.38789">
        <ele>68.8</ele>
        <time>2016-12-06T13:53:49Z</time>
      </trkpt>
      <trkpt lat="43.43051" lon="6.38781">
        <ele>68.7</ele>
        <time>2016-12-06T13:53:54Z</time>
      </trkpt>
      <trkpt lat="43.43046" lon="6.38773">
        <ele>68.7</ele>
        <time>2016-12-06T13:53:59Z</time>
      </trkpt>
      <trkpt lat="43.4304" lon="6.38764">
        <ele>68.4</ele>
        <time>2016-12-06T13:54:05Z</time>
      </trkpt>
      <trkpt lat="43.43038" lon="6.38753">
        <ele>68.3</ele>
        <time>2016-12-06T13:54:11Z</time>
      </trkpt>
      <trkpt lat="43.43033" lon="6.38744">
        <ele>67.7</ele>
        <time>2016-12-06T13:54:16Z</time>
      </trkpt>
      <trkpt lat="43.43028" lon="6.38736">
        <ele>68</ele>
        <time>2016-12-06T13:54:21Z</time>
      </trkpt>
      <trkpt lat="43.43024" lon="6.38728">
        <ele>68</ele>
        <time>2016-12-06T13:54:26Z</time>
      </trkpt>
      <trkpt lat="43.43018" lon="6.38721">
        <ele>67.7</ele>
        <time>2016-12-06T13:54:31Z</time>
      </trkpt>
      <trkpt lat="43.43012" lon="6.38713">
        <ele>67.5</ele>
        <time>2016-12-06T13:54:37Z</time>
      </trkpt>
      <trkpt lat="43.43005" lon="6.38705">
        <ele>67.7</ele>
        <time>2016-12-06T13:54:44Z</time>
      </trkpt>
      <trkpt lat="43.43004" lon="6.38704">
        <ele>67.7</ele>
        <time>2016-12-06T13:54:45Z</time>
      </trkpt>
      <trkpt lat="43.42989" lon="6.38698">
        <ele>67.3</ele>
        <time>2016-12-06T13:54:58Z</time>
      </trkpt>
      <trkpt lat="43.42981" lon="6.38694">
        <ele>67.3</ele>
        <time>2016-12-06T13:55:04Z</time>
      </trkpt>
      <trkpt lat="43.42975" lon="6.38688">
        <ele>66.9</ele>
        <time>2016-12-06T13:55:08Z</time>
      </trkpt>
      <trkpt lat="43.42969" lon="6.3868">
        <ele>66.6</ele>
        <time>2016-12-06T13:55:13Z</time>
      </trkpt>
      <trkpt lat="43.42963" lon="6.38672">
        <ele>66.6</ele>
        <time>2016-12-06T13:55:19Z</time>
      </trkpt>
      <trkpt lat="43.42955" lon="6.38667">
        <ele>66.5</ele>
        <time>2016-12-06T13:55:24Z</time>
      </trkpt>
      <trkpt lat="43.42946" lon="6.38665">
        <ele>66.3</ele>
        <time>2016-12-06T13:55:29Z</time>
      </trkpt>
      <trkpt lat="43.42938" lon="6.38661">
        <ele>66.3</ele>
        <time>2016-12-06T13:55:35Z</time>
      </trkpt>
      <trkpt lat="43.42932" lon="6.38655">
        <ele>66.2</ele>
        <time>2016-12-06T13:55:42Z</time>
      </trkpt>
      <trkpt lat="43.42924" lon="6.38649">
        <ele>66</ele>
        <time>2016-12-06T13:55:48Z</time>
      </trkpt>
      <trkpt lat="43.42923" lon="6.38648">
        <ele>65.9</ele>
        <time>2016-12-06T13:55:49Z</time>
      </trkpt>
      <trkpt lat="43.42912" lon="6.38634">
        <ele>65.9</ele>
        <time>2016-12-06T13:56:00Z</time>
      </trkpt>
      <trkpt lat="43.42907" lon="6.38625">
        <ele>65.6</ele>
        <time>2016-12-06T13:56:05Z</time>
      </trkpt>
      <trkpt lat="43.42906" lon="6.38615">
        <ele>65.5</ele>
        <time>2016-12-06T13:56:09Z</time>
      </trkpt>
      <trkpt lat="43.42901" lon="6.38606">
        <ele>65.8</ele>
        <time>2016-12-06T13:56:15Z</time>
      </trkpt>
      <trkpt lat="43.42907" lon="6.38614">
        <ele>66.4</ele>
        <time>2016-12-06T13:56:50Z</time>
      </trkpt>
      <trkpt lat="43.42908" lon="6.38615">
        <ele>66.4</ele>
        <time>2016-12-06T13:56:51Z</time>
      </trkpt>
      <trkpt lat="43.42915" lon="6.38636">
        <ele>66.2</ele>
        <time>2016-12-06T13:57:08Z</time>
      </trkpt>
      <trkpt lat="43.42921" lon="6.38644">
        <ele>66.4</ele>
        <time>2016-12-06T13:57:15Z</time>
      </trkpt>
      <trkpt lat="43.42928" lon="6.38651">
        <ele>66.5</ele>
        <time>2016-12-06T13:57:22Z</time>
      </trkpt>
      <trkpt lat="43.42936" lon="6.38657">
        <ele>66.1</ele>
        <time>2016-12-06T13:57:29Z</time>
      </trkpt>
      <trkpt lat="43.42943" lon="6.38662">
        <ele>66.2</ele>
        <time>2016-12-06T13:57:35Z</time>
      </trkpt>
      <trkpt lat="43.42951" lon="6.38667">
        <ele>66.3</ele>
        <time>2016-12-06T13:57:41Z</time>
      </trkpt>
      <trkpt lat="43.42958" lon="6.38674">
        <ele>66.6</ele>
        <time>2016-12-06T13:57:48Z</time>
      </trkpt>
      <trkpt lat="43.42964" lon="6.38681">
        <ele>66.9</ele>
        <time>2016-12-06T13:57:55Z</time>
      </trkpt>
      <trkpt lat="43.42965" lon="6.38682">
        <ele>66.9</ele>
        <time>2016-12-06T13:57:56Z</time>
      </trkpt>
      <trkpt lat="43.42978" lon="6.38693">
        <ele>67.2</ele>
        <time>2016-12-06T13:58:08Z</time>
      </trkpt>
      <trkpt lat="43.42984" lon="6.38699">
        <ele>67.1</ele>
        <time>2016-12-06T13:58:14Z</time>
      </trkpt>
      <trkpt lat="43.42991" lon="6.38703">
        <ele>67</ele>
        <time>2016-12-06T13:58:19Z</time>
      </trkpt>
      <trkpt lat="43.42999" lon="6.38708">
        <ele>67.2</ele>
        <time>2016-12-06T13:58:25Z</time>
      </trkpt>
      <trkpt lat="43.43005" lon="6.38714">
        <ele>67.4</ele>
        <time>2016-12-06T13:58:30Z</time>
      </trkpt>
      <trkpt lat="43.43012" lon="6.38722">
        <ele>67.4</ele>
        <time>2016-12-06T13:58:37Z</time>
      </trkpt>
      <trkpt lat="43.43018" lon="6.3873">
        <ele>67.6</ele>
        <time>2016-12-06T13:58:44Z</time>
      </trkpt>
      <trkpt lat="43.43024" lon="6.38739">
        <ele>67.3</ele>
        <time>2016-12-06T13:58:50Z</time>
      </trkpt>
      <trkpt lat="43.43029" lon="6.38748">
        <ele>67.7</ele>
        <time>2016-12-06T13:58:56Z</time>
      </trkpt>
      <trkpt lat="43.4303" lon="6.3875">
        <ele>67.8</ele>
        <time>2016-12-06T13:58:57Z</time>
      </trkpt>
      <trkpt lat="43.4304" lon="6.38766">
        <ele>67.9</ele>
        <time>2016-12-06T13:59:08Z</time>
      </trkpt>
      <trkpt lat="43.43044" lon="6.38776">
        <ele>67.9</ele>
        <time>2016-12-06T13:59:14Z</time>
      </trkpt>
      <trkpt lat="43.43049" lon="6.38784">
        <ele>67.8</ele>
        <time>2016-12-06T13:59:20Z</time>
      </trkpt>
      <trkpt lat="43.43055" lon="6.38793">
        <ele>67.5</ele>
        <time>2016-12-06T13:59:26Z</time>
      </trkpt>
      <trkpt lat="43.4306" lon="6.38802">
        <ele>67.9</ele>
        <time>2016-12-06T13:59:32Z</time>
      </trkpt>
      <trkpt lat="43.43065" lon="6.38811">
        <ele>67.9</ele>
        <time>2016-12-06T13:59:38Z</time>
      </trkpt>
      <trkpt lat="43.43069" lon="6.3882">
        <ele>68.3</ele>
        <time>2016-12-06T13:59:44Z</time>
      </trkpt>
      <trkpt lat="43.43074" lon="6.3883">
        <ele>68.8</ele>
        <time>2016-12-06T13:59:50Z</time>
      </trkpt>
      <trkpt lat="43.43079" lon="6.38839">
        <ele>69.1</ele>
        <time>2016-12-06T13:59:58Z</time>
      </trkpt>
      <trkpt lat="43.4308" lon="6.38841">
        <ele>69</ele>
        <time>2016-12-06T13:59:59Z</time>
      </trkpt>
      <trkpt lat="43.43086" lon="6.3886">
        <ele>69.2</ele>
        <time>2016-12-06T14:00:09Z</time>
      </trkpt>
      <trkpt lat="43.43085" lon="6.38871">
        <ele>69.5</ele>
        <time>2016-12-06T14:00:15Z</time>
      </trkpt>
      <trkpt lat="43.43085" lon="6.38882">
        <ele>69.6</ele>
        <time>2016-12-06T14:00:20Z</time>
      </trkpt>
      <trkpt lat="43.43086" lon="6.38894">
        <ele>69.8</ele>
        <time>2016-12-06T14:00:25Z</time>
      </trkpt>
      <trkpt lat="43.43088" lon="6.38905">
        <ele>69.7</ele>
        <time>2016-12-06T14:00:31Z</time>
      </trkpt>
      <trkpt lat="43.43091" lon="6.38915">
        <ele>69.4</ele>
        <time>2016-12-06T14:00:36Z</time>
      </trkpt>
      <trkpt lat="43.43093" lon="6.38926">
        <ele>69.2</ele>
        <time>2016-12-06T14:00:41Z</time>
      </trkpt>
      <trkpt lat="43.43095" lon="6.38937">
        <ele>69.1</ele>
        <time>2016-12-06T14:00:46Z</time>
      </trkpt>
      <trkpt lat="43.43096" lon="6.38947">
        <ele>68.7</ele>
        <time>2016-12-06T14:00:51Z</time>
      </trkpt>
      <trkpt lat="43.43097" lon="6.38959">
        <ele>68.5</ele>
        <time>2016-12-06T14:00:56Z</time>
      </trkpt>
      <trkpt lat="43.43097" lon="6.3897">
        <ele>68</ele>
        <time>2016-12-06T14:01:01Z</time>
      </trkpt>
      <trkpt lat="43.43097" lon="6.38973">
        <ele>67.9</ele>
        <time>2016-12-06T14:01:02Z</time>
      </trkpt>
      <trkpt lat="43.43095" lon="6.38993">
        <ele>67.3</ele>
        <time>2016-12-06T14:01:12Z</time>
      </trkpt>
      <trkpt lat="43.43095" lon="6.39003">
        <ele>66.9</ele>
        <time>2016-12-06T14:01:18Z</time>
      </trkpt>
      <trkpt lat="43.43093" lon="6.39015">
        <ele>66.8</ele>
        <time>2016-12-06T14:01:24Z</time>
      </trkpt>
      <trkpt lat="43.43093" lon="6.39027">
        <ele>66.4</ele>
        <time>2016-12-06T14:01:30Z</time>
      </trkpt>
      <trkpt lat="43.43091" lon="6.39037">
        <ele>66.3</ele>
        <time>2016-12-06T14:01:36Z</time>
      </trkpt>
      <trkpt lat="43.43088" lon="6.39047">
        <ele>66.5</ele>
        <time>2016-12-06T14:01:42Z</time>
      </trkpt>
      <trkpt lat="43.43087" lon="6.39058">
        <ele>66.4</ele>
        <time>2016-12-06T14:01:47Z</time>
      </trkpt>
      <trkpt lat="43.43085" lon="6.3907">
        <ele>66.7</ele>
        <time>2016-12-06T14:01:53Z</time>
      </trkpt>
      <trkpt lat="43.43083" lon="6.39082">
        <ele>67.2</ele>
        <time>2016-12-06T14:01:59Z</time>
      </trkpt>
      <trkpt lat="43.43082" lon="6.39093">
        <ele>67.5</ele>
        <time>2016-12-06T14:02:05Z</time>
      </trkpt>
      <trkpt lat="43.43082" lon="6.39095">
        <ele>67.6</ele>
        <time>2016-12-06T14:02:06Z</time>
      </trkpt>
      <trkpt lat="43.4308" lon="6.39117">
        <ele>67.1</ele>
        <time>2016-12-06T14:02:18Z</time>
      </trkpt>
      <trkpt lat="43.43077" lon="6.39128">
        <ele>67.3</ele>
        <time>2016-12-06T14:02:24Z</time>
      </trkpt>
      <trkpt lat="43.43076" lon="6.3914">
        <ele>67</ele>
        <time>2016-12-06T14:02:31Z</time>
      </trkpt>
      <trkpt lat="43.43075" lon="6.3915">
        <ele>66.9</ele>
        <time>2016-12-06T14:02:36Z</time>
      </trkpt>
      <trkpt lat="43.43072" lon="6.39161">
        <ele>66.6</ele>
        <time>2016-12-06T14:02:41Z</time>
      </trkpt>
      <trkpt lat="43.4307" lon="6.39172">
        <ele>66.9</ele>
        <time>2016-12-06T14:02:47Z</time>
      </trkpt>
      <trkpt lat="43.43067" lon="6.39183">
        <ele>66.7</ele>
        <time>2016-12-06T14:02:53Z</time>
      </trkpt>
      <trkpt lat="43.43063" lon="6.39194">
        <ele>66.9</ele>
        <time>2016-12-06T14:02:59Z</time>
      </trkpt>
      <trkpt lat="43.4306" lon="6.39204">
        <ele>66.4</ele>
        <time>2016-12-06T14:03:05Z</time>
      </trkpt>
      <trkpt lat="43.43057" lon="6.39213">
        <ele>66.5</ele>
        <time>2016-12-06T14:03:10Z</time>
      </trkpt>
      <trkpt lat="43.43057" lon="6.39215">
        <ele>66.6</ele>
        <time>2016-12-06T14:03:11Z</time>
      </trkpt>
      <trkpt lat="43.43049" lon="6.39234">
        <ele>66.9</ele>
        <time>2016-12-06T14:03:21Z</time>
      </trkpt>
      <trkpt lat="43.43046" lon="6.39245">
        <ele>67.2</ele>
        <time>2016-12-06T14:03:27Z</time>
      </trkpt>
      <trkpt lat="43.43043" lon="6.39257">
        <ele>67.4</ele>
        <time>2016-12-06T14:03:33Z</time>
      </trkpt>
      <trkpt lat="43.4304" lon="6.39266">
        <ele>68</ele>
        <time>2016-12-06T14:03:39Z</time>
      </trkpt>
      <trkpt lat="43.43036" lon="6.39277">
        <ele>68</ele>
        <time>2016-12-06T14:03:45Z</time>
      </trkpt>
      <trkpt lat="43.43033" lon="6.39289">
        <ele>68</ele>
        <time>2016-12-06T14:03:50Z</time>
      </trkpt>
      <trkpt lat="43.43031" lon="6.39298">
        <ele>67.9</ele>
        <time>2016-12-06T14:03:54Z</time>
      </trkpt>
      <trkpt lat="43.43026" lon="6.39307">
        <ele>67.9</ele>
        <time>2016-12-06T14:03:58Z</time>
      </trkpt>
      <trkpt lat="43.43022" lon="6.39315">
        <ele>67.9</ele>
        <time>2016-12-06T14:04:03Z</time>
      </trkpt>
      <trkpt lat="43.43018" lon="6.39327">
        <ele>68.2</ele>
        <time>2016-12-06T14:04:08Z</time>
      </trkpt>
      <trkpt lat="43.43017" lon="6.39337">
        <ele>68.2</ele>
        <time>2016-12-06T14:04:12Z</time>
      </trkpt>
      <trkpt lat="43.43017" lon="6.39339">
        <ele>67.9</ele>
        <time>2016-12-06T14:04:13Z</time>
      </trkpt>
      <trkpt lat="43.43011" lon="6.39359">
        <ele>67.7</ele>
        <time>2016-12-06T14:04:22Z</time>
      </trkpt>
      <trkpt lat="43.43009" lon="6.39369">
        <ele>67.4</ele>
        <time>2016-12-06T14:04:26Z</time>
      </trkpt>
      <trkpt lat="43.43007" lon="6.39379">
        <ele>67.3</ele>
        <time>2016-12-06T14:04:30Z</time>
      </trkpt>
      <trkpt lat="43.43004" lon="6.3939">
        <ele>67.6</ele>
        <time>2016-12-06T14:04:35Z</time>
      </trkpt>
      <trkpt lat="43.43001" lon="6.39401">
        <ele>67.3</ele>
        <time>2016-12-06T14:04:40Z</time>
      </trkpt>
      <trkpt lat="43.42997" lon="6.3941">
        <ele>66.8</ele>
        <time>2016-12-06T14:04:45Z</time>
      </trkpt>
      <trkpt lat="43.42994" lon="6.3942">
        <ele>67</ele>
        <time>2016-12-06T14:04:50Z</time>
      </trkpt>
      <trkpt lat="43.4299" lon="6.39431">
        <ele>67.3</ele>
        <time>2016-12-06T14:04:55Z</time>
      </trkpt>
      <trkpt lat="43.42986" lon="6.3944">
        <ele>67.3</ele>
        <time>2016-12-06T14:05:00Z</time>
      </trkpt>
      <trkpt lat="43.42982" lon="6.3945">
        <ele>67.2</ele>
        <time>2016-12-06T14:05:05Z</time>
      </trkpt>
      <trkpt lat="43.42978" lon="6.39459">
        <ele>67.2</ele>
        <time>2016-12-06T14:05:11Z</time>
      </trkpt>
      <trkpt lat="43.42974" lon="6.39469">
        <ele>66.8</ele>
        <time>2016-12-06T14:05:17Z</time>
      </trkpt>
      <trkpt lat="43.42973" lon="6.39471">
        <ele>66.8</ele>
        <time>2016-12-06T14:05:18Z</time>
      </trkpt>
      <trkpt lat="43.42962" lon="6.39486">
        <ele>66.2</ele>
        <time>2016-12-06T14:05:29Z</time>
      </trkpt>
      <trkpt lat="43.42958" lon="6.39496">
        <ele>66</ele>
        <time>2016-12-06T14:05:34Z</time>
      </trkpt>
      <trkpt lat="43.42953" lon="6.39506">
        <ele>65.9</ele>
        <time>2016-12-06T14:05:40Z</time>
      </trkpt>
      <trkpt lat="43.42948" lon="6.39515">
        <ele>65.6</ele>
        <time>2016-12-06T14:05:46Z</time>
      </trkpt>
      <trkpt lat="43.42944" lon="6.39525">
        <ele>65.5</ele>
        <time>2016-12-06T14:05:53Z</time>
      </trkpt>
      <trkpt lat="43.4294" lon="6.39535">
        <ele>65.6</ele>
        <time>2016-12-06T14:06:00Z</time>
      </trkpt>
      <trkpt lat="43.42937" lon="6.39545">
        <ele>65.9</ele>
        <time>2016-12-06T14:06:07Z</time>
      </trkpt>
      <trkpt lat="43.42935" lon="6.39556">
        <ele>66</ele>
        <time>2016-12-06T14:06:12Z</time>
      </trkpt>
      <trkpt lat="43.42932" lon="6.39567">
        <ele>66</ele>
        <time>2016-12-06T14:06:17Z</time>
      </trkpt>
      <trkpt lat="43.42929" lon="6.39577">
        <ele>65.6</ele>
        <time>2016-12-06T14:06:22Z</time>
      </trkpt>
      <trkpt lat="43.42929" lon="6.39579">
        <ele>65.6</ele>
        <time>2016-12-06T14:06:23Z</time>
      </trkpt>
      <trkpt lat="43.42922" lon="6.39597">
        <ele>65.6</ele>
        <time>2016-12-06T14:06:33Z</time>
      </trkpt>
      <trkpt lat="43.4292" lon="6.39607">
        <ele>65.9</ele>
        <time>2016-12-06T14:06:41Z</time>
      </trkpt>
      <trkpt lat="43.42915" lon="6.39617">
        <ele>66</ele>
        <time>2016-12-06T14:06:47Z</time>
      </trkpt>
      <trkpt lat="43.42913" lon="6.39628">
        <ele>66.1</ele>
        <time>2016-12-06T14:06:52Z</time>
      </trkpt>
      <trkpt lat="43.42909" lon="6.39637">
        <ele>66.2</ele>
        <time>2016-12-06T14:06:57Z</time>
      </trkpt>
      <trkpt lat="43.42906" lon="6.39647">
        <ele>66.1</ele>
        <time>2016-12-06T14:07:02Z</time>
      </trkpt>
      <trkpt lat="43.42901" lon="6.39657">
        <ele>66.2</ele>
        <time>2016-12-06T14:07:08Z</time>
      </trkpt>
      <trkpt lat="43.42896" lon="6.39668">
        <ele>66</ele>
        <time>2016-12-06T14:07:14Z</time>
      </trkpt>
      <trkpt lat="43.42894" lon="6.39677">
        <ele>66.5</ele>
        <time>2016-12-06T14:07:19Z</time>
      </trkpt>
      <trkpt lat="43.4289" lon="6.39688">
        <ele>66.5</ele>
        <time>2016-12-06T14:07:25Z</time>
      </trkpt>
      <trkpt lat="43.4289" lon="6.3969">
        <ele>66.5</ele>
        <time>2016-12-06T14:07:26Z</time>
      </trkpt>
      <trkpt lat="43.42883" lon="6.39709">
        <ele>66.2</ele>
        <time>2016-12-06T14:07:37Z</time>
      </trkpt>
      <trkpt lat="43.42879" lon="6.3972">
        <ele>66.2</ele>
        <time>2016-12-06T14:07:44Z</time>
      </trkpt>
      <trkpt lat="43.42876" lon="6.39731">
        <ele>66.2</ele>
        <time>2016-12-06T14:07:50Z</time>
      </trkpt>
      <trkpt lat="43.42872" lon="6.39742">
        <ele>66.3</ele>
        <time>2016-12-06T14:07:56Z</time>
      </trkpt>
      <trkpt lat="43.42868" lon="6.39752">
        <ele>66</ele>
        <time>2016-12-06T14:08:02Z</time>
      </trkpt>
      <trkpt lat="43.42865" lon="6.39762">
        <ele>66.2</ele>
        <time>2016-12-06T14:08:07Z</time>
      </trkpt>
      <trkpt lat="43.42863" lon="6.39772">
        <ele>66</ele>
        <time>2016-12-06T14:08:12Z</time>
      </trkpt>
      <trkpt lat="43.42859" lon="6.39782">
        <ele>66</ele>
        <time>2016-12-06T14:08:18Z</time>
      </trkpt>
      <trkpt lat="43.42855" lon="6.39792">
        <ele>66.2</ele>
        <time>2016-12-06T14:08:24Z</time>
      </trkpt>
      <trkpt lat="43.42851" lon="6.39802">
        <ele>66.2</ele>
        <time>2016-12-06T14:08:30Z</time>
      </trkpt>
      <trkpt lat="43.42851" lon="6.39804">
        <ele>66.3</ele>
        <time>2016-12-06T14:08:31Z</time>
      </trkpt>
      <trkpt lat="43.42846" lon="6.39823">
        <ele>66.3</ele>
        <time>2016-12-06T14:08:42Z</time>
      </trkpt>
      <trkpt lat="43.42846" lon="6.39834">
        <ele>66.5</ele>
        <time>2016-12-06T14:08:47Z</time>
      </trkpt>
      <trkpt lat="43.42847" lon="6.39845">
        <ele>66.5</ele>
        <time>2016-12-06T14:08:52Z</time>
      </trkpt>
      <trkpt lat="43.42849" lon="6.39855">
        <ele>66.4</ele>
        <time>2016-12-06T14:08:57Z</time>
      </trkpt>
      <trkpt lat="43.42851" lon="6.39866">
        <ele>67</ele>
        <time>2016-12-06T14:09:02Z</time>
      </trkpt>
      <trkpt lat="43.42853" lon="6.39878">
        <ele>66.7</ele>
        <time>2016-12-06T14:09:08Z</time>
      </trkpt>
      <trkpt lat="43.42855" lon="6.39888">
        <ele>66.5</ele>
        <time>2016-12-06T14:09:13Z</time>
      </trkpt>
      <trkpt lat="43.42856" lon="6.399">
        <ele>66.8</ele>
        <time>2016-12-06T14:09:19Z</time>
      </trkpt>
      <trkpt lat="43.42857" lon="6.39912">
        <ele>66.4</ele>
        <time>2016-12-06T14:09:25Z</time>
      </trkpt>
      <trkpt lat="43.42857" lon="6.39924">
        <ele>66.3</ele>
        <time>2016-12-06T14:09:31Z</time>
      </trkpt>
      <trkpt lat="43.42858" lon="6.39926">
        <ele>66.3</ele>
        <time>2016-12-06T14:09:32Z</time>
      </trkpt>
      <trkpt lat="43.42858" lon="6.39946">
        <ele>66.1</ele>
        <time>2016-12-06T14:09:42Z</time>
      </trkpt>
      <trkpt lat="43.42858" lon="6.39958">
        <ele>66.1</ele>
        <time>2016-12-06T14:09:49Z</time>
      </trkpt>
      <trkpt lat="43.42858" lon="6.39969">
        <ele>66.1</ele>
        <time>2016-12-06T14:09:55Z</time>
      </trkpt>
      <trkpt lat="43.42857" lon="6.3998">
        <ele>65.9</ele>
        <time>2016-12-06T14:10:01Z</time>
      </trkpt>
      <trkpt lat="43.42857" lon="6.39992">
        <ele>65.7</ele>
        <time>2016-12-06T14:10:07Z</time>
      </trkpt>
      <trkpt lat="43.42856" lon="6.40004">
        <ele>66</ele>
        <time>2016-12-06T14:10:14Z</time>
      </trkpt>
      <trkpt lat="43.42856" lon="6.40017">
        <ele>66.3</ele>
        <time>2016-12-06T14:10:21Z</time>
      </trkpt>
      <trkpt lat="43.42856" lon="6.40028">
        <ele>66.3</ele>
        <time>2016-12-06T14:10:28Z</time>
      </trkpt>
      <trkpt lat="43.42855" lon="6.4004">
        <ele>66.2</ele>
        <time>2016-12-06T14:10:35Z</time>
      </trkpt>
      <trkpt lat="43.42855" lon="6.40042">
        <ele>66.2</ele>
        <time>2016-12-06T14:10:36Z</time>
      </trkpt>
      <trkpt lat="43.42854" lon="6.40063">
        <ele>66.1</ele>
        <time>2016-12-06T14:10:49Z</time>
      </trkpt>
      <trkpt lat="43.42853" lon="6.40075">
        <ele>66.2</ele>
        <time>2016-12-06T14:10:56Z</time>
      </trkpt>
      <trkpt lat="43.42852" lon="6.40087">
        <ele>66.5</ele>
        <time>2016-12-06T14:11:02Z</time>
      </trkpt>
      <trkpt lat="43.4285" lon="6.40097">
        <ele>66.6</ele>
        <time>2016-12-06T14:11:07Z</time>
      </trkpt>
      <trkpt lat="43.42847" lon="6.40108">
        <ele>66.5</ele>
        <time>2016-12-06T14:11:14Z</time>
      </trkpt>
      <trkpt lat="43.42843" lon="6.40118">
        <ele>66.6</ele>
        <time>2016-12-06T14:11:20Z</time>
      </trkpt>
      <trkpt lat="43.42839" lon="6.40128">
        <ele>66.5</ele>
        <time>2016-12-06T14:11:26Z</time>
      </trkpt>
      <trkpt lat="43.42833" lon="6.40136">
        <ele>66.3</ele>
        <time>2016-12-06T14:11:31Z</time>
      </trkpt>
      <trkpt lat="43.42829" lon="6.40144">
        <ele>66.2</ele>
        <time>2016-12-06T14:11:35Z</time>
      </trkpt>
      <trkpt lat="43.42824" lon="6.40153">
        <ele>66.4</ele>
        <time>2016-12-06T14:11:40Z</time>
      </trkpt>
      <trkpt lat="43.42823" lon="6.40155">
        <ele>66.5</ele>
        <time>2016-12-06T14:11:41Z</time>
      </trkpt>
      <trkpt lat="43.42813" lon="6.40169">
        <ele>66.7</ele>
        <time>2016-12-06T14:11:52Z</time>
      </trkpt>
      <trkpt lat="43.42809" lon="6.4018">
        <ele>66.5</ele>
        <time>2016-12-06T14:11:59Z</time>
      </trkpt>
      <trkpt lat="43.4281" lon="6.40191">
        <ele>66.7</ele>
        <time>2016-12-06T14:12:05Z</time>
      </trkpt>
      <trkpt lat="43.42811" lon="6.40201">
        <ele>66.7</ele>
        <time>2016-12-06T14:12:10Z</time>
      </trkpt>
      <trkpt lat="43.42813" lon="6.40212">
        <ele>66.7</ele>
        <time>2016-12-06T14:12:15Z</time>
      </trkpt>
      <trkpt lat="43.42814" lon="6.40224">
        <ele>66.4</ele>
        <time>2016-12-06T14:12:21Z</time>
      </trkpt>
      <trkpt lat="43.42815" lon="6.40235">
        <ele>66.3</ele>
        <time>2016-12-06T14:12:27Z</time>
      </trkpt>
      <trkpt lat="43.42817" lon="6.40246">
        <ele>66.1</ele>
        <time>2016-12-06T14:12:32Z</time>
      </trkpt>
      <trkpt lat="43.42816" lon="6.40257">
        <ele>65.4</ele>
        <time>2016-12-06T14:12:39Z</time>
      </trkpt>
      <trkpt lat="43.42817" lon="6.40268">
        <ele>65.6</ele>
        <time>2016-12-06T14:12:45Z</time>
      </trkpt>
      <trkpt lat="43.42818" lon="6.4027">
        <ele>65.6</ele>
        <time>2016-12-06T14:12:46Z</time>
      </trkpt>
      <trkpt lat="43.42821" lon="6.4029">
        <ele>65.8</ele>
        <time>2016-12-06T14:12:57Z</time>
      </trkpt>
      <trkpt lat="43.42822" lon="6.40301">
        <ele>66</ele>
        <time>2016-12-06T14:13:03Z</time>
      </trkpt>
      <trkpt lat="43.42822" lon="6.40312">
        <ele>66</ele>
        <time>2016-12-06T14:13:09Z</time>
      </trkpt>
      <trkpt lat="43.42821" lon="6.40324">
        <ele>66</ele>
        <time>2016-12-06T14:13:16Z</time>
      </trkpt>
      <trkpt lat="43.42823" lon="6.40334">
        <ele>65.9</ele>
        <time>2016-12-06T14:13:21Z</time>
      </trkpt>
      <trkpt lat="43.42826" lon="6.40345">
        <ele>66</ele>
        <time>2016-12-06T14:13:26Z</time>
      </trkpt>
      <trkpt lat="43.42827" lon="6.40355">
        <ele>65.9</ele>
        <time>2016-12-06T14:13:31Z</time>
      </trkpt>
      <trkpt lat="43.42829" lon="6.40366">
        <ele>66</ele>
        <time>2016-12-06T14:13:36Z</time>
      </trkpt>
      <trkpt lat="43.42831" lon="6.40377">
        <ele>66</ele>
        <time>2016-12-06T14:13:41Z</time>
      </trkpt>
      <trkpt lat="43.42834" lon="6.40387">
        <ele>66.3</ele>
        <time>2016-12-06T14:13:46Z</time>
      </trkpt>
      <trkpt lat="43.42834" lon="6.40389">
        <ele>66.3</ele>
        <time>2016-12-06T14:13:47Z</time>
      </trkpt>
      <trkpt lat="43.42839" lon="6.4041">
        <ele>66.4</ele>
        <time>2016-12-06T14:13:56Z</time>
      </trkpt>
      <trkpt lat="43.42842" lon="6.40419">
        <ele>66.5</ele>
        <time>2016-12-06T14:14:01Z</time>
      </trkpt>
      <trkpt lat="43.42845" lon="6.4043">
        <ele>66.8</ele>
        <time>2016-12-06T14:14:07Z</time>
      </trkpt>
      <trkpt lat="43.42848" lon="6.40439">
        <ele>67</ele>
        <time>2016-12-06T14:14:12Z</time>
      </trkpt>
      <trkpt lat="43.42852" lon="6.4045">
        <ele>67.1</ele>
        <time>2016-12-06T14:14:18Z</time>
      </trkpt>
      <trkpt lat="43.42856" lon="6.4046">
        <ele>67.1</ele>
        <time>2016-12-06T14:14:23Z</time>
      </trkpt>
      <trkpt lat="43.4286" lon="6.4047">
        <ele>67.5</ele>
        <time>2016-12-06T14:14:29Z</time>
      </trkpt>
      <trkpt lat="43.42863" lon="6.40481">
        <ele>67.7</ele>
        <time>2016-12-06T14:14:37Z</time>
      </trkpt>
      <trkpt lat="43.42864" lon="6.40493">
        <ele>68.3</ele>
        <time>2016-12-06T14:14:45Z</time>
      </trkpt>
      <trkpt lat="43.42867" lon="6.40503">
        <ele>68.6</ele>
        <time>2016-12-06T14:14:51Z</time>
      </trkpt>
      <trkpt lat="43.42867" lon="6.40505">
        <ele>68.7</ele>
        <time>2016-12-06T14:14:52Z</time>
      </trkpt>
      <trkpt lat="43.42873" lon="6.40524">
        <ele>68.9</ele>
        <time>2016-12-06T14:15:03Z</time>
      </trkpt>
      <trkpt lat="43.42877" lon="6.40534">
        <ele>69.1</ele>
        <time>2016-12-06T14:15:09Z</time>
      </trkpt>
      <trkpt lat="43.42881" lon="6.40543">
        <ele>69.1</ele>
        <time>2016-12-06T14:15:14Z</time>
      </trkpt>
      <trkpt lat="43.42885" lon="6.40554">
        <ele>69.2</ele>
        <time>2016-12-06T14:15:20Z</time>
      </trkpt>
      <trkpt lat="43.4289" lon="6.40563">
        <ele>69.4</ele>
        <time>2016-12-06T14:15:25Z</time>
      </trkpt>
      <trkpt lat="43.42894" lon="6.40572">
        <ele>70</ele>
        <time>2016-12-06T14:15:31Z</time>
      </trkpt>
      <trkpt lat="43.42899" lon="6.4058">
        <ele>70.4</ele>
        <time>2016-12-06T14:15:36Z</time>
      </trkpt>
      <trkpt lat="43.42904" lon="6.40589">
        <ele>70.4</ele>
        <time>2016-12-06T14:15:42Z</time>
      </trkpt>
      <trkpt lat="43.42911" lon="6.40596">
        <ele>70.8</ele>
        <time>2016-12-06T14:15:48Z</time>
      </trkpt>
      <trkpt lat="43.42918" lon="6.40603">
        <ele>71.3</ele>
        <time>2016-12-06T14:15:54Z</time>
      </trkpt>
      <trkpt lat="43.42919" lon="6.40604">
        <ele>71.4</ele>
        <time>2016-12-06T14:15:55Z</time>
      </trkpt>
      <trkpt lat="43.42932" lon="6.40615">
        <ele>71.9</ele>
        <time>2016-12-06T14:16:07Z</time>
      </trkpt>
      <trkpt lat="43.42939" lon="6.4062">
        <ele>72.6</ele>
        <time>2016-12-06T14:16:13Z</time>
      </trkpt>
      <trkpt lat="43.42947" lon="6.40624">
        <ele>73</ele>
        <time>2016-12-06T14:16:19Z</time>
      </trkpt>
      <trkpt lat="43.42954" lon="6.40627">
        <ele>73.3</ele>
        <time>2016-12-06T14:16:25Z</time>
      </trkpt>
      <trkpt lat="43.42963" lon="6.40628">
        <ele>73.5</ele>
        <time>2016-12-06T14:16:32Z</time>
      </trkpt>
      <trkpt lat="43.42972" lon="6.40628">
        <ele>73.7</ele>
        <time>2016-12-06T14:16:39Z</time>
      </trkpt>
      <trkpt lat="43.42981" lon="6.40626">
        <ele>74.1</ele>
        <time>2016-12-06T14:16:46Z</time>
      </trkpt>
      <trkpt lat="43.42989" lon="6.40625">
        <ele>74.9</ele>
        <time>2016-12-06T14:16:54Z</time>
      </trkpt>
      <trkpt lat="43.42997" lon="6.40623">
        <ele>74.8</ele>
        <time>2016-12-06T14:17:01Z</time>
      </trkpt>
      <trkpt lat="43.42998" lon="6.40623">
        <ele>74.8</ele>
        <time>2016-12-06T14:17:02Z</time>
      </trkpt>
      <trkpt lat="43.43014" lon="6.40619">
        <ele>74.4</ele>
        <time>2016-12-06T14:17:15Z</time>
      </trkpt>
      <trkpt lat="43.43022" lon="6.40616">
        <ele>75.2</ele>
        <time>2016-12-06T14:17:22Z</time>
      </trkpt>
      <trkpt lat="43.4303" lon="6.40614">
        <ele>75.6</ele>
        <time>2016-12-06T14:17:30Z</time>
      </trkpt>
      <trkpt lat="43.43035" lon="6.40604">
        <ele>76.5</ele>
        <time>2016-12-06T14:18:46Z</time>
      </trkpt>
      <trkpt lat="43.43035" lon="6.40604">
        <ele>76.6</ele>
        <time>2016-12-06T14:18:47Z</time>
      </trkpt>
      <trkpt lat="43.43044" lon="6.40607">
        <ele>76.3</ele>
        <time>2016-12-06T14:20:36Z</time>
      </trkpt>
      <trkpt lat="43.43045" lon="6.40606">
        <ele>76.2</ele>
        <time>2016-12-06T14:20:37Z</time>
      </trkpt>
      <trkpt lat="43.43061" lon="6.40605">
        <ele>76</ele>
        <time>2016-12-06T14:20:51Z</time>
      </trkpt>
      <trkpt lat="43.4307" lon="6.40606">
        <ele>75.8</ele>
        <time>2016-12-06T14:20:58Z</time>
      </trkpt>
      <trkpt lat="43.43078" lon="6.40607">
        <ele>76</ele>
        <time>2016-12-06T14:21:05Z</time>
      </trkpt>
      <trkpt lat="43.43087" lon="6.4061">
        <ele>76</ele>
        <time>2016-12-06T14:21:14Z</time>
      </trkpt>
      <trkpt lat="43.43094" lon="6.40614">
        <ele>76.2</ele>
        <time>2016-12-06T14:21:21Z</time>
      </trkpt>
      <trkpt lat="43.43101" lon="6.40619">
        <ele>76.2</ele>
        <time>2016-12-06T14:21:27Z</time>
      </trkpt>
      <trkpt lat="43.43109" lon="6.40626">
        <ele>76.3</ele>
        <time>2016-12-06T14:21:34Z</time>
      </trkpt>
      <trkpt lat="43.43115" lon="6.40633">
        <ele>76</ele>
        <time>2016-12-06T14:21:41Z</time>
      </trkpt>
      <trkpt lat="43.43116" lon="6.40634">
        <ele>76</ele>
        <time>2016-12-06T14:21:42Z</time>
      </trkpt>
      <trkpt lat="43.43128" lon="6.40648">
        <ele>75.7</ele>
        <time>2016-12-06T14:21:56Z</time>
      </trkpt>
      <trkpt lat="43.43135" lon="6.40654">
        <ele>75.3</ele>
        <time>2016-12-06T14:22:02Z</time>
      </trkpt>
      <trkpt lat="43.43142" lon="6.4066">
        <ele>75.2</ele>
        <time>2016-12-06T14:22:08Z</time>
      </trkpt>
      <trkpt lat="43.43149" lon="6.40666">
        <ele>75.6</ele>
        <time>2016-12-06T14:22:14Z</time>
      </trkpt>
      <trkpt lat="43.43157" lon="6.40672">
        <ele>75.3</ele>
        <time>2016-12-06T14:22:21Z</time>
      </trkpt>
      <trkpt lat="43.43165" lon="6.40676">
        <ele>75.6</ele>
        <time>2016-12-06T14:22:29Z</time>
      </trkpt>
      <trkpt lat="43.43171" lon="6.40684">
        <ele>75.6</ele>
        <time>2016-12-06T14:22:42Z</time>
      </trkpt>
      <trkpt lat="43.43172" lon="6.40685">
        <ele>75.6</ele>
        <time>2016-12-06T14:22:43Z</time>
      </trkpt>
      <trkpt lat="43.43171" lon="6.40706">
        <ele>75.3</ele>
        <time>2016-12-06T14:23:04Z</time>
      </trkpt>
      <trkpt lat="43.43168" lon="6.40717">
        <ele>75.6</ele>
        <time>2016-12-06T14:23:14Z</time>
      </trkpt>
      <trkpt lat="43.43161" lon="6.40723">
        <ele>75.8</ele>
        <time>2016-12-06T14:23:22Z</time>
      </trkpt>
      <trkpt lat="43.43152" lon="6.40724">
        <ele>75.4</ele>
        <time>2016-12-06T14:23:33Z</time>
      </trkpt>
      <trkpt lat="43.43145" lon="6.40718">
        <ele>75.6</ele>
        <time>2016-12-06T14:23:46Z</time>
      </trkpt>
      <trkpt lat="43.43144" lon="6.40717">
        <ele>75.6</ele>
        <time>2016-12-06T14:23:47Z</time>
      </trkpt>
      <trkpt lat="43.4313" lon="6.40713">
        <ele>75.6</ele>
        <time>2016-12-06T14:23:59Z</time>
      </trkpt>
      <trkpt lat="43.43121" lon="6.40711">
        <ele>75.4</ele>
        <time>2016-12-06T14:24:05Z</time>
      </trkpt>
      <trkpt lat="43.43113" lon="6.40709">
        <ele>75</ele>
        <time>2016-12-06T14:24:13Z</time>
      </trkpt>
      <trkpt lat="43.43105" lon="6.40708">
        <ele>75.3</ele>
        <time>2016-12-06T14:24:21Z</time>
      </trkpt>
      <trkpt lat="43.43097" lon="6.40708">
        <ele>75.3</ele>
        <time>2016-12-06T14:24:27Z</time>
      </trkpt>
      <trkpt lat="43.43089" lon="6.40708">
        <ele>75.2</ele>
        <time>2016-12-06T14:24:33Z</time>
      </trkpt>
      <trkpt lat="43.4308" lon="6.40708">
        <ele>75.3</ele>
        <time>2016-12-06T14:24:38Z</time>
      </trkpt>
      <trkpt lat="43.43072" lon="6.40708">
        <ele>75.4</ele>
        <time>2016-12-06T14:24:45Z</time>
      </trkpt>
      <trkpt lat="43.43064" lon="6.40709">
        <ele>75.6</ele>
        <time>2016-12-06T14:24:50Z</time>
      </trkpt>
      <trkpt lat="43.43062" lon="6.40711">
        <ele>75.6</ele>
        <time>2016-12-06T14:24:51Z</time>
      </trkpt>
      <trkpt lat="43.43049" lon="6.40715">
        <ele>75.9</ele>
        <time>2016-12-06T14:24:58Z</time>
      </trkpt>
      <trkpt lat="43.43041" lon="6.4072">
        <ele>75.7</ele>
        <time>2016-12-06T14:25:04Z</time>
      </trkpt>
      <trkpt lat="43.43033" lon="6.40724">
        <ele>75.7</ele>
        <time>2016-12-06T14:25:09Z</time>
      </trkpt>
      <trkpt lat="43.43027" lon="6.40731">
        <ele>76.1</ele>
        <time>2016-12-06T14:25:14Z</time>
      </trkpt>
      <trkpt lat="43.43019" lon="6.40736">
        <ele>76.2</ele>
        <time>2016-12-06T14:25:20Z</time>
      </trkpt>
      <trkpt lat="43.43011" lon="6.40742">
        <ele>76.1</ele>
        <time>2016-12-06T14:25:26Z</time>
      </trkpt>
      <trkpt lat="43.43004" lon="6.40749">
        <ele>75.8</ele>
        <time>2016-12-06T14:25:33Z</time>
      </trkpt>
      <trkpt lat="43.42997" lon="6.40756">
        <ele>75.4</ele>
        <time>2016-12-06T14:25:39Z</time>
      </trkpt>
      <trkpt lat="43.4299" lon="6.40763">
        <ele>74.8</ele>
        <time>2016-12-06T14:25:45Z</time>
      </trkpt>
      <trkpt lat="43.42983" lon="6.40771">
        <ele>75.3</ele>
        <time>2016-12-06T14:25:51Z</time>
      </trkpt>
      <trkpt lat="43.42982" lon="6.40772">
        <ele>75.4</ele>
        <time>2016-12-06T14:25:52Z</time>
      </trkpt>
      <trkpt lat="43.42971" lon="6.40788">
        <ele>74.9</ele>
        <time>2016-12-06T14:26:03Z</time>
      </trkpt>
      <trkpt lat="43.42968" lon="6.40799">
        <ele>74.5</ele>
        <time>2016-12-06T14:26:13Z</time>
      </trkpt>
      <trkpt lat="43.42969" lon="6.4081">
        <ele>74.8</ele>
        <time>2016-12-06T14:26:21Z</time>
      </trkpt>
      <trkpt lat="43.42966" lon="6.40822">
        <ele>74.9</ele>
        <time>2016-12-06T14:26:27Z</time>
      </trkpt>
      <trkpt lat="43.42961" lon="6.40832">
        <ele>75</ele>
        <time>2016-12-06T14:26:34Z</time>
      </trkpt>
      <trkpt lat="43.42956" lon="6.4084">
        <ele>75</ele>
        <time>2016-12-06T14:26:41Z</time>
      </trkpt>
      <trkpt lat="43.42951" lon="6.4085">
        <ele>75.5</ele>
        <time>2016-12-06T14:26:53Z</time>
      </trkpt>
      <trkpt lat="43.4295" lon="6.40852">
        <ele>75.5</ele>
        <time>2016-12-06T14:26:54Z</time>
      </trkpt>
      <trkpt lat="43.42941" lon="6.40869">
        <ele>75.5</ele>
        <time>2016-12-06T14:27:08Z</time>
      </trkpt>
      <trkpt lat="43.42936" lon="6.40878">
        <ele>75.9</ele>
        <time>2016-12-06T14:27:15Z</time>
      </trkpt>
      <trkpt lat="43.42934" lon="6.40888">
        <ele>76.1</ele>
        <time>2016-12-06T14:27:21Z</time>
      </trkpt>
      <trkpt lat="43.4293" lon="6.40899">
        <ele>75.8</ele>
        <time>2016-12-06T14:27:27Z</time>
      </trkpt>
      <trkpt lat="43.42926" lon="6.4091">
        <ele>75.5</ele>
        <time>2016-12-06T14:27:33Z</time>
      </trkpt>
      <trkpt lat="43.42924" lon="6.40921">
        <ele>75.5</ele>
        <time>2016-12-06T14:27:39Z</time>
      </trkpt>
      <trkpt lat="43.42922" lon="6.40931">
        <ele>75.5</ele>
        <time>2016-12-06T14:27:45Z</time>
      </trkpt>
      <trkpt lat="43.42918" lon="6.40942">
        <ele>75.7</ele>
        <time>2016-12-06T14:27:51Z</time>
      </trkpt>
      <trkpt lat="43.42915" lon="6.40952">
        <ele>75.5</ele>
        <time>2016-12-06T14:27:57Z</time>
      </trkpt>
      <trkpt lat="43.42914" lon="6.40953">
        <ele>75.5</ele>
        <time>2016-12-06T14:27:58Z</time>
      </trkpt>
      <trkpt lat="43.42909" lon="6.40973">
        <ele>75.6</ele>
        <time>2016-12-06T14:28:11Z</time>
      </trkpt>
      <trkpt lat="43.42905" lon="6.40983">
        <ele>75.6</ele>
        <time>2016-12-06T14:28:17Z</time>
      </trkpt>
      <trkpt lat="43.429" lon="6.40993">
        <ele>75.3</ele>
        <time>2016-12-06T14:28:23Z</time>
      </trkpt>
      <trkpt lat="43.42896" lon="6.41003">
        <ele>75</ele>
        <time>2016-12-06T14:28:30Z</time>
      </trkpt>
      <trkpt lat="43.42893" lon="6.41014">
        <ele>74.9</ele>
        <time>2016-12-06T14:28:36Z</time>
      </trkpt>
      <trkpt lat="43.42891" lon="6.41024">
        <ele>74.8</ele>
        <time>2016-12-06T14:28:42Z</time>
      </trkpt>
      <trkpt lat="43.42888" lon="6.41035">
        <ele>74.6</ele>
        <time>2016-12-06T14:28:48Z</time>
      </trkpt>
      <trkpt lat="43.42886" lon="6.41046">
        <ele>74.5</ele>
        <time>2016-12-06T14:28:54Z</time>
      </trkpt>
      <trkpt lat="43.42883" lon="6.41056">
        <ele>74.6</ele>
        <time>2016-12-06T14:29:00Z</time>
      </trkpt>
      <trkpt lat="43.42883" lon="6.41058">
        <ele>74.6</ele>
        <time>2016-12-06T14:29:01Z</time>
      </trkpt>
      <trkpt lat="43.42877" lon="6.41078">
        <ele>74.8</ele>
        <time>2016-12-06T14:29:15Z</time>
      </trkpt>
      <trkpt lat="43.42874" lon="6.41089">
        <ele>74.9</ele>
        <time>2016-12-06T14:29:23Z</time>
      </trkpt>
      <trkpt lat="43.42869" lon="6.411">
        <ele>74.8</ele>
        <time>2016-12-06T14:29:31Z</time>
      </trkpt>
      <trkpt lat="43.42867" lon="6.41111">
        <ele>75.1</ele>
        <time>2016-12-06T14:29:38Z</time>
      </trkpt>
      <trkpt lat="43.42864" lon="6.41122">
        <ele>75.1</ele>
        <time>2016-12-06T14:29:44Z</time>
      </trkpt>
      <trkpt lat="43.42861" lon="6.41133">
        <ele>75.2</ele>
        <time>2016-12-06T14:29:50Z</time>
      </trkpt>
      <trkpt lat="43.42857" lon="6.41143">
        <ele>75.1</ele>
        <time>2016-12-06T14:29:56Z</time>
      </trkpt>
      <trkpt lat="43.42854" lon="6.41152">
        <ele>74.9</ele>
        <time>2016-12-06T14:30:03Z</time>
      </trkpt>
      <trkpt lat="43.42853" lon="6.41154">
        <ele>74.8</ele>
        <time>2016-12-06T14:30:04Z</time>
      </trkpt>
      <trkpt lat="43.42845" lon="6.41171">
        <ele>74.9</ele>
        <time>2016-12-06T14:30:15Z</time>
      </trkpt>
      <trkpt lat="43.4284" lon="6.41181">
        <ele>74.9</ele>
        <time>2016-12-06T14:30:20Z</time>
      </trkpt>
      <trkpt lat="43.42835" lon="6.4119">
        <ele>75.3</ele>
        <time>2016-12-06T14:30:25Z</time>
      </trkpt>
      <trkpt lat="43.42831" lon="6.412">
        <ele>75.2</ele>
        <time>2016-12-06T14:30:31Z</time>
      </trkpt>
      <trkpt lat="43.42827" lon="6.41212">
        <ele>74.9</ele>
        <time>2016-12-06T14:30:37Z</time>
      </trkpt>
      <trkpt lat="43.42825" lon="6.41222">
        <ele>75.1</ele>
        <time>2016-12-06T14:30:43Z</time>
      </trkpt>
      <trkpt lat="43.42822" lon="6.41233">
        <ele>75.2</ele>
        <time>2016-12-06T14:30:50Z</time>
      </trkpt>
      <trkpt lat="43.4282" lon="6.41244">
        <ele>75.1</ele>
        <time>2016-12-06T14:30:56Z</time>
      </trkpt>
      <trkpt lat="43.42818" lon="6.41256">
        <ele>74.7</ele>
        <time>2016-12-06T14:31:03Z</time>
      </trkpt>
      <trkpt lat="43.42817" lon="6.41268">
        <ele>74.8</ele>
        <time>2016-12-06T14:31:10Z</time>
      </trkpt>
      <trkpt lat="43.42817" lon="6.4127">
        <ele>74.9</ele>
        <time>2016-12-06T14:31:11Z</time>
      </trkpt>
      <trkpt lat="43.42815" lon="6.41292">
        <ele>75</ele>
        <time>2016-12-06T14:31:24Z</time>
      </trkpt>
      <trkpt lat="43.42816" lon="6.41303">
        <ele>74.8</ele>
        <time>2016-12-06T14:31:30Z</time>
      </trkpt>
      <trkpt lat="43.42817" lon="6.41315">
        <ele>74.9</ele>
        <time>2016-12-06T14:31:36Z</time>
      </trkpt>
      <trkpt lat="43.4282" lon="6.41326">
        <ele>75</ele>
        <time>2016-12-06T14:31:41Z</time>
      </trkpt>
      <trkpt lat="43.42822" lon="6.41336">
        <ele>75.2</ele>
        <time>2016-12-06T14:31:47Z</time>
      </trkpt>
      <trkpt lat="43.42823" lon="6.41348">
        <ele>74.9</ele>
        <time>2016-12-06T14:31:54Z</time>
      </trkpt>
      <trkpt lat="43.42823" lon="6.41359">
        <ele>75.1</ele>
        <time>2016-12-06T14:32:01Z</time>
      </trkpt>
      <trkpt lat="43.42823" lon="6.41371">
        <ele>74.7</ele>
        <time>2016-12-06T14:32:09Z</time>
      </trkpt>
      <trkpt lat="43.42824" lon="6.41383">
        <ele>74.1</ele>
        <time>2016-12-06T14:32:16Z</time>
      </trkpt>
      <trkpt lat="43.42824" lon="6.41384">
        <ele>74.2</ele>
        <time>2016-12-06T14:32:17Z</time>
      </trkpt>
      <trkpt lat="43.42827" lon="6.41404">
        <ele>74.3</ele>
        <time>2016-12-06T14:32:30Z</time>
      </trkpt>
      <trkpt lat="43.4283" lon="6.41416">
        <ele>74.5</ele>
        <time>2016-12-06T14:32:39Z</time>
      </trkpt>
      <trkpt lat="43.42831" lon="6.41426">
        <ele>74.9</ele>
        <time>2016-12-06T14:32:44Z</time>
      </trkpt>
      <trkpt lat="43.42832" lon="6.41438">
        <ele>74.4</ele>
        <time>2016-12-06T14:32:50Z</time>
      </trkpt>
      <trkpt lat="43.42834" lon="6.4145">
        <ele>74.5</ele>
        <time>2016-12-06T14:32:58Z</time>
      </trkpt>
      <trkpt lat="43.42834" lon="6.41462">
        <ele>74.5</ele>
        <time>2016-12-06T14:33:05Z</time>
      </trkpt>
      <trkpt lat="43.42835" lon="6.41474">
        <ele>74.7</ele>
        <time>2016-12-06T14:33:12Z</time>
      </trkpt>
      <trkpt lat="43.42832" lon="6.41486">
        <ele>74.6</ele>
        <time>2016-12-06T14:33:19Z</time>
      </trkpt>
      <trkpt lat="43.42831" lon="6.41487">
        <ele>74.7</ele>
        <time>2016-12-06T14:33:20Z</time>
      </trkpt>
      <trkpt lat="43.42827" lon="6.41509">
        <ele>74.7</ele>
        <time>2016-12-06T14:33:33Z</time>
      </trkpt>
      <trkpt lat="43.42824" lon="6.4152">
        <ele>74.8</ele>
        <time>2016-12-06T14:33:39Z</time>
      </trkpt>
      <trkpt lat="43.42823" lon="6.41531">
        <ele>74.5</ele>
        <time>2016-12-06T14:33:46Z</time>
      </trkpt>
      <trkpt lat="43.42824" lon="6.41542">
        <ele>74.5</ele>
        <time>2016-12-06T14:33:53Z</time>
      </trkpt>
      <trkpt lat="43.42826" lon="6.41552">
        <ele>74.7</ele>
        <time>2016-12-06T14:33:58Z</time>
      </trkpt>
      <trkpt lat="43.42827" lon="6.41564">
        <ele>74.8</ele>
        <time>2016-12-06T14:34:04Z</time>
      </trkpt>
      <trkpt lat="43.4283" lon="6.41576">
        <ele>74.6</ele>
        <time>2016-12-06T14:34:13Z</time>
      </trkpt>
      <trkpt lat="43.42831" lon="6.41587">
        <ele>73.8</ele>
        <time>2016-12-06T14:34:20Z</time>
      </trkpt>
      <trkpt lat="43.42831" lon="6.41588">
        <ele>73.6</ele>
        <time>2016-12-06T14:34:21Z</time>
      </trkpt>
      <trkpt lat="43.42829" lon="6.4161">
        <ele>70.3</ele>
        <time>2016-12-06T14:34:37Z</time>
      </trkpt>
      <trkpt lat="43.42823" lon="6.41617">
        <ele>69</ele>
        <time>2016-12-06T14:34:45Z</time>
      </trkpt>
      <trkpt lat="43.42817" lon="6.41626">
        <ele>67.9</ele>
        <time>2016-12-06T14:34:50Z</time>
      </trkpt>
      <trkpt lat="43.42815" lon="6.41637">
        <ele>67.4</ele>
        <time>2016-12-06T14:34:56Z</time>
      </trkpt>
      <trkpt lat="43.42813" lon="6.41648">
        <ele>66.4</ele>
        <time>2016-12-06T14:35:03Z</time>
      </trkpt>
      <trkpt lat="43.4281" lon="6.41659">
        <ele>66.1</ele>
        <time>2016-12-06T14:35:10Z</time>
      </trkpt>
      <trkpt lat="43.42808" lon="6.4167">
        <ele>66</ele>
        <time>2016-12-06T14:35:17Z</time>
      </trkpt>
      <trkpt lat="43.42804" lon="6.4168">
        <ele>65.5</ele>
        <time>2016-12-06T14:35:24Z</time>
      </trkpt>
      <trkpt lat="43.42804" lon="6.41681">
        <ele>65.6</ele>
        <time>2016-12-06T14:35:25Z</time>
      </trkpt>
      <trkpt lat="43.42798" lon="6.41701">
        <ele>65.3</ele>
        <time>2016-12-06T14:35:38Z</time>
      </trkpt>
      <trkpt lat="43.42796" lon="6.41712">
        <ele>65.4</ele>
        <time>2016-12-06T14:35:45Z</time>
      </trkpt>
      <trkpt lat="43.42793" lon="6.41723">
        <ele>65.3</ele>
        <time>2016-12-06T14:35:53Z</time>
      </trkpt>
      <trkpt lat="43.4279" lon="6.41733">
        <ele>65.3</ele>
        <time>2016-12-06T14:36:00Z</time>
      </trkpt>
      <trkpt lat="43.42785" lon="6.41742">
        <ele>65.2</ele>
        <time>2016-12-06T14:36:06Z</time>
      </trkpt>
      <trkpt lat="43.42778" lon="6.41749">
        <ele>65.4</ele>
        <time>2016-12-06T14:36:12Z</time>
      </trkpt>
      <trkpt lat="43.4277" lon="6.41754">
        <ele>65.3</ele>
        <time>2016-12-06T14:36:18Z</time>
      </trkpt>
      <trkpt lat="43.42762" lon="6.41758">
        <ele>65.1</ele>
        <time>2016-12-06T14:36:25Z</time>
      </trkpt>
      <trkpt lat="43.42761" lon="6.41758">
        <ele>65</ele>
        <time>2016-12-06T14:36:26Z</time>
      </trkpt>
      <trkpt lat="43.42759" lon="6.41777">
        <ele>64.2</ele>
        <time>2016-12-06T14:36:43Z</time>
      </trkpt>
      <trkpt lat="43.42762" lon="6.41787">
        <ele>64.4</ele>
        <time>2016-12-06T14:36:50Z</time>
      </trkpt>
      <trkpt lat="43.42765" lon="6.41799">
        <ele>64.9</ele>
        <time>2016-12-06T14:36:58Z</time>
      </trkpt>
      <trkpt lat="43.42768" lon="6.4181">
        <ele>64.4</ele>
        <time>2016-12-06T14:37:06Z</time>
      </trkpt>
      <trkpt lat="43.42768" lon="6.41822">
        <ele>64.4</ele>
        <time>2016-12-06T14:37:13Z</time>
      </trkpt>
      <trkpt lat="43.42768" lon="6.41834">
        <ele>64.7</ele>
        <time>2016-12-06T14:37:21Z</time>
      </trkpt>
      <trkpt lat="43.42765" lon="6.41844">
        <ele>64.9</ele>
        <time>2016-12-06T14:37:28Z</time>
      </trkpt>
      <trkpt lat="43.42765" lon="6.41846">
        <ele>65</ele>
        <time>2016-12-06T14:37:29Z</time>
      </trkpt>
      <trkpt lat="43.42758" lon="6.41866">
        <ele>65.3</ele>
        <time>2016-12-06T14:37:42Z</time>
      </trkpt>
      <trkpt lat="43.42755" lon="6.41877">
        <ele>65.1</ele>
        <time>2016-12-06T14:37:49Z</time>
      </trkpt>
      <trkpt lat="43.42752" lon="6.41888">
        <ele>64.5</ele>
        <time>2016-12-06T14:37:55Z</time>
      </trkpt>
      <trkpt lat="43.4275" lon="6.41899">
        <ele>64.4</ele>
        <time>2016-12-06T14:38:02Z</time>
      </trkpt>
      <trkpt lat="43.42751" lon="6.4191">
        <ele>63.9</ele>
        <time>2016-12-06T14:38:09Z</time>
      </trkpt>
      <trkpt lat="43.42758" lon="6.41917">
        <ele>63.8</ele>
        <time>2016-12-06T14:38:16Z</time>
      </trkpt>
      <trkpt lat="43.42766" lon="6.41921">
        <ele>63.8</ele>
        <time>2016-12-06T14:38:23Z</time>
      </trkpt>
      <trkpt lat="43.42773" lon="6.41926">
        <ele>63.9</ele>
        <time>2016-12-06T14:38:29Z</time>
      </trkpt>
      <trkpt lat="43.42774" lon="6.41927">
        <ele>63.8</ele>
        <time>2016-12-06T14:38:30Z</time>
      </trkpt>
      <trkpt lat="43.42788" lon="6.41934">
        <ele>63.5</ele>
        <time>2016-12-06T14:38:41Z</time>
      </trkpt>
      <trkpt lat="43.42795" lon="6.41938">
        <ele>63.2</ele>
        <time>2016-12-06T14:38:47Z</time>
      </trkpt>
      <trkpt lat="43.42803" lon="6.41942">
        <ele>63.4</ele>
        <time>2016-12-06T14:38:54Z</time>
      </trkpt>
      <trkpt lat="43.42811" lon="6.41946">
        <ele>63.6</ele>
        <time>2016-12-06T14:39:01Z</time>
      </trkpt>
      <trkpt lat="43.42819" lon="6.4195">
        <ele>63.5</ele>
        <time>2016-12-06T14:39:08Z</time>
      </trkpt>
      <trkpt lat="43.42827" lon="6.41955">
        <ele>63.3</ele>
        <time>2016-12-06T14:39:15Z</time>
      </trkpt>
      <trkpt lat="43.42835" lon="6.4196">
        <ele>63.4</ele>
        <time>2016-12-06T14:39:22Z</time>
      </trkpt>
      <trkpt lat="43.42843" lon="6.41963">
        <ele>63.4</ele>
        <time>2016-12-06T14:39:28Z</time>
      </trkpt>
      <trkpt lat="43.4285" lon="6.41967">
        <ele>63.8</ele>
        <time>2016-12-06T14:39:34Z</time>
      </trkpt>
      <trkpt lat="43.42851" lon="6.41968">
        <ele>63.9</ele>
        <time>2016-12-06T14:39:35Z</time>
      </trkpt>
      <trkpt lat="43.42864" lon="6.41975">
        <ele>63.6</ele>
        <time>2016-12-06T14:39:46Z</time>
      </trkpt>
      <trkpt lat="43.42872" lon="6.41979">
        <ele>63.5</ele>
        <time>2016-12-06T14:39:52Z</time>
      </trkpt>
      <trkpt lat="43.42879" lon="6.41986">
        <ele>63.3</ele>
        <time>2016-12-06T14:39:59Z</time>
      </trkpt>
      <trkpt lat="43.42887" lon="6.4199">
        <ele>63.2</ele>
        <time>2016-12-06T14:40:06Z</time>
      </trkpt>
      <trkpt lat="43.42895" lon="6.41994">
        <ele>63.3</ele>
        <time>2016-12-06T14:40:13Z</time>
      </trkpt>
      <trkpt lat="43.42903" lon="6.41998">
        <ele>63.3</ele>
        <time>2016-12-06T14:40:19Z</time>
      </trkpt>
      <trkpt lat="43.42911" lon="6.42002">
        <ele>63.8</ele>
        <time>2016-12-06T14:40:25Z</time>
      </trkpt>
      <trkpt lat="43.42919" lon="6.42007">
        <ele>63.4</ele>
        <time>2016-12-06T14:40:31Z</time>
      </trkpt>
      <trkpt lat="43.42926" lon="6.42011">
        <ele>63.2</ele>
        <time>2016-12-06T14:40:37Z</time>
      </trkpt>
      <trkpt lat="43.42927" lon="6.42012">
        <ele>63.2</ele>
        <time>2016-12-06T14:40:38Z</time>
      </trkpt>
      <trkpt lat="43.42941" lon="6.42018">
        <ele>63.1</ele>
        <time>2016-12-06T14:40:49Z</time>
      </trkpt>
      <trkpt lat="43.42949" lon="6.42021">
        <ele>62.5</ele>
        <time>2016-12-06T14:40:55Z</time>
      </trkpt>
      <trkpt lat="43.42956" lon="6.42027">
        <ele>62.8</ele>
        <time>2016-12-06T14:41:02Z</time>
      </trkpt>
      <trkpt lat="43.42963" lon="6.42032">
        <ele>62.9</ele>
        <time>2016-12-06T14:41:08Z</time>
      </trkpt>
      <trkpt lat="43.4297" lon="6.42036">
        <ele>62.6</ele>
        <time>2016-12-06T14:41:14Z</time>
      </trkpt>
      <trkpt lat="43.42978" lon="6.4204">
        <ele>62.7</ele>
        <time>2016-12-06T14:41:20Z</time>
      </trkpt>
      <trkpt lat="43.42985" lon="6.42044">
        <ele>62.4</ele>
        <time>2016-12-06T14:41:26Z</time>
      </trkpt>
      <trkpt lat="43.42993" lon="6.42047">
        <ele>62.2</ele>
        <time>2016-12-06T14:41:33Z</time>
      </trkpt>
      <trkpt lat="43.43" lon="6.4205">
        <ele>62</ele>
        <time>2016-12-06T14:41:39Z</time>
      </trkpt>
      <trkpt lat="43.43002" lon="6.42051">
        <ele>62</ele>
        <time>2016-12-06T14:41:40Z</time>
      </trkpt>
      <trkpt lat="43.43016" lon="6.42057">
        <ele>61.8</ele>
        <time>2016-12-06T14:41:52Z</time>
      </trkpt>
      <trkpt lat="43.43024" lon="6.4206">
        <ele>62</ele>
        <time>2016-12-06T14:41:58Z</time>
      </trkpt>
      <trkpt lat="43.43031" lon="6.42066">
        <ele>61.8</ele>
        <time>2016-12-06T14:42:04Z</time>
      </trkpt>
      <trkpt lat="43.43039" lon="6.42071">
        <ele>61.7</ele>
        <time>2016-12-06T14:42:11Z</time>
      </trkpt>
      <trkpt lat="43.43048" lon="6.42074">
        <ele>61.7</ele>
        <time>2016-12-06T14:42:19Z</time>
      </trkpt>
      <trkpt lat="43.43054" lon="6.42083">
        <ele>61.8</ele>
        <time>2016-12-06T14:42:33Z</time>
      </trkpt>
      <trkpt lat="43.4306" lon="6.42091">
        <ele>62</ele>
        <time>2016-12-06T14:42:45Z</time>
      </trkpt>
      <trkpt lat="43.4306" lon="6.42092">
        <ele>62</ele>
        <time>2016-12-06T14:42:46Z</time>
      </trkpt>
      <trkpt lat="43.43069" lon="6.42107">
        <ele>61.3</ele>
        <time>2016-12-06T14:43:47Z</time>
      </trkpt>
      <trkpt lat="43.43069" lon="6.42108">
        <ele>61.4</ele>
        <time>2016-12-06T14:43:48Z</time>
      </trkpt>
      <trkpt lat="43.43063" lon="6.42115">
        <ele>59.5</ele>
        <time>2016-12-06T14:55:53Z</time>
      </trkpt>
      <trkpt lat="43.43062" lon="6.42115">
        <ele>59.5</ele>
        <time>2016-12-06T14:55:54Z</time>
      </trkpt>
      <trkpt lat="43.43055" lon="6.42135">
        <ele>59.6</ele>
        <time>2016-12-06T14:56:30Z</time>
      </trkpt>
      <trkpt lat="43.43051" lon="6.42146">
        <ele>59.6</ele>
        <time>2016-12-06T14:56:40Z</time>
      </trkpt>
      <trkpt lat="43.43046" lon="6.42155">
        <ele>59</ele>
        <time>2016-12-06T14:56:50Z</time>
      </trkpt>
      <trkpt lat="43.43039" lon="6.42162">
        <ele>58.8</ele>
        <time>2016-12-06T14:58:19Z</time>
      </trkpt>
      <trkpt lat="43.43038" lon="6.42163">
        <ele>58.8</ele>
        <time>2016-12-06T14:58:20Z</time>
      </trkpt>
    </trkseg>
  </trk>
</gpx>